<?xml version="1.0" encoding="UTF-8" standalone="no" ?>
<gpx xmlns="http://www.topografix.com/GPX/1/1" xmlns:xsi="http://www.w3.org/2001/XMLSchema-instance" xsi:schemaLocation="http://www.topografix.com/GPX/1/1 http://www.topografix.com/GPX/1/1/gpx.xsd" version="1.1" creator="VisuGPX - https://www.visugpx.com">
  <metadata>
    <name>45Bruay</name>
  </metadata>
  <trk>
    <name><![CDATA[46Bruay]]></name>
    <trkseg>
      <trkpt lat="50.50367" lon="3.46458">
        <ele>22.290599</ele>
        <time>2020-05-24T21:06:18.485Z</time>
      </trkpt>
      <trkpt lat="50.50405" lon="3.46483">
        <ele>22.290599</ele>
        <time>2020-05-24T21:06:28.579Z</time>
      </trkpt>
      <trkpt lat="50.50437" lon="3.46507">
        <ele>22.290599</ele>
        <time>2020-05-24T21:06:37.583Z</time>
      </trkpt>
      <trkpt lat="50.50523" lon="3.46572">
        <ele>23.159993</ele>
        <time>2020-05-24T21:07:02.590Z</time>
      </trkpt>
      <trkpt lat="50.50585" lon="3.46603">
        <ele>23.856746</ele>
        <time>2020-05-24T21:07:20.354Z</time>
      </trkpt>
      <trkpt lat="50.50681" lon="3.46651">
        <ele>24.634605</ele>
        <time>2020-05-24T21:07:47.071Z</time>
      </trkpt>
      <trkpt lat="50.50708" lon="3.46672">
        <ele>24.824304</ele>
        <time>2020-05-24T21:07:54.598Z</time>
      </trkpt>
      <trkpt lat="50.50735" lon="3.46707">
        <ele>25.046415</ele>
        <time>2020-05-24T21:08:03.011Z</time>
      </trkpt>
      <trkpt lat="50.50778" lon="3.46766">
        <ele>25.320832</ele>
        <time>2020-05-24T21:08:16.273Z</time>
      </trkpt>
      <trkpt lat="50.50821" lon="3.46826">
        <ele>25.190748</ele>
        <time>2020-05-24T21:08:29.122Z</time>
      </trkpt>
      <trkpt lat="50.50831" lon="3.4684">
        <ele>25.161258</ele>
        <time>2020-05-24T21:08:31.908Z</time>
      </trkpt>
      <trkpt lat="50.50837" lon="3.46857">
        <ele>25.132856</ele>
        <time>2020-05-24T21:08:34.612Z</time>
      </trkpt>
      <trkpt lat="50.5084" lon="3.46941">
        <ele>25.012866</ele>
        <time>2020-05-24T21:08:45.539Z</time>
      </trkpt>
      <trkpt lat="50.5085" lon="3.46978">
        <ele>24.954854</ele>
        <time>2020-05-24T21:08:50.833Z</time>
      </trkpt>
      <trkpt lat="50.50871" lon="3.47017">
        <ele>24.814722</ele>
        <time>2020-05-24T21:08:57.525Z</time>
      </trkpt>
      <trkpt lat="50.50899" lon="3.47062">
        <ele>24.618623</ele>
        <time>2020-05-24T21:09:05.707Z</time>
      </trkpt>
      <trkpt lat="50.50936" lon="3.47116">
        <ele>24.368067</ele>
        <time>2020-05-24T21:09:16.055Z</time>
      </trkpt>
      <trkpt lat="50.50985" lon="3.47169">
        <ele>24.072723</ele>
        <time>2020-05-24T21:09:28.430Z</time>
      </trkpt>
      <trkpt lat="50.51052" lon="3.47236">
        <ele>23.735579</ele>
        <time>2020-05-24T21:09:44.918Z</time>
      </trkpt>
      <trkpt lat="50.51059" lon="3.47247">
        <ele>23.695701</ele>
        <time>2020-05-24T21:09:46.903Z</time>
      </trkpt>
      <trkpt lat="50.51066" lon="3.47262">
        <ele>23.644977</ele>
        <time>2020-05-24T21:09:49.423Z</time>
      </trkpt>
      <trkpt lat="50.51065" lon="3.47278">
        <ele>23.601393</ele>
        <time>2020-05-24T21:09:51.599Z</time>
      </trkpt>
      <trkpt lat="50.51017" lon="3.47414">
        <ele>23.147841</ele>
        <time>2020-05-24T21:10:12.165Z</time>
      </trkpt>
      <trkpt lat="50.51006" lon="3.47445">
        <ele>23.021055</ele>
        <time>2020-05-24T21:10:16.809Z</time>
      </trkpt>
      <trkpt lat="50.51016" lon="3.47475">
        <ele>22.897775</ele>
        <time>2020-05-24T21:10:21.349Z</time>
      </trkpt>
      <trkpt lat="50.51082" lon="3.4755">
        <ele>22.436792</ele>
        <time>2020-05-24T21:10:37.684Z</time>
      </trkpt>
      <trkpt lat="50.51104" lon="3.47596">
        <ele>22.238441</ele>
        <time>2020-05-24T21:10:44.962Z</time>
      </trkpt>
      <trkpt lat="50.5111" lon="3.47622">
        <ele>22.162196</ele>
        <time>2020-05-24T21:10:48.437Z</time>
      </trkpt>
      <trkpt lat="50.51109" lon="3.47654">
        <ele>22.076471</ele>
        <time>2020-05-24T21:10:52.619Z</time>
      </trkpt>
      <trkpt lat="50.51104" lon="3.47687">
        <ele>21.984374</ele>
        <time>2020-05-24T21:10:56.907Z</time>
      </trkpt>
      <trkpt lat="50.5108" lon="3.47774">
        <ele>21.725463</ele>
        <time>2020-05-24T21:11:09.637Z</time>
      </trkpt>
      <trkpt lat="50.51082" lon="3.47786">
        <ele>21.693028</ele>
        <time>2020-05-24T21:11:11.086Z</time>
      </trkpt>
      <trkpt lat="50.5109" lon="3.47798">
        <ele>21.644588</ele>
        <time>2020-05-24T21:11:13.708Z</time>
      </trkpt>
      <trkpt lat="50.51109" lon="3.47824">
        <ele>21.538579</ele>
        <time>2020-05-24T21:11:18.917Z</time>
      </trkpt>
      <trkpt lat="50.51122" lon="3.47856">
        <ele>21.496681</ele>
        <time>2020-05-24T21:11:24.481Z</time>
      </trkpt>
      <trkpt lat="50.51125" lon="3.47964">
        <ele>21.485052</ele>
        <time>2020-05-24T21:11:39.708Z</time>
      </trkpt>
      <trkpt lat="50.51129" lon="3.48001">
        <ele>21.48101</ele>
        <time>2020-05-24T21:11:44.911Z</time>
      </trkpt>
      <trkpt lat="50.51132" lon="3.48019">
        <ele>21.47902</ele>
        <time>2020-05-24T21:11:47.803Z</time>
      </trkpt>
      <trkpt lat="50.51138" lon="3.48111">
        <ele>21.469096</ele>
        <time>2020-05-24T21:12:00.973Z</time>
      </trkpt>
      <trkpt lat="50.51143" lon="3.48169">
        <ele>21.486529</ele>
        <time>2020-05-24T21:12:09.210Z</time>
      </trkpt>
      <trkpt lat="50.51135" lon="3.48237">
        <ele>21.508109</ele>
        <time>2020-05-24T21:12:18.921Z</time>
      </trkpt>
      <trkpt lat="50.5113" lon="3.48251">
        <ele>21.512912</ele>
        <time>2020-05-24T21:12:21.115Z</time>
      </trkpt>
      <trkpt lat="50.5112" lon="3.48278">
        <ele>21.52286</ele>
        <time>2020-05-24T21:12:25.388Z</time>
      </trkpt>
      <trkpt lat="50.511" lon="3.48334">
        <ele>21.543011</ele>
        <time>2020-05-24T21:12:34.635Z</time>
      </trkpt>
      <trkpt lat="50.51092" lon="3.48355">
        <ele>21.5504</ele>
        <time>2020-05-24T21:12:38.189Z</time>
      </trkpt>
      <trkpt lat="50.51087" lon="3.48377">
        <ele>21.558887</ele>
        <time>2020-05-24T21:12:41.690Z</time>
      </trkpt>
      <trkpt lat="50.51082" lon="3.4846">
        <ele>21.630458</ele>
        <time>2020-05-24T21:12:54.649Z</time>
      </trkpt>
      <trkpt lat="50.5108" lon="3.48506">
        <ele>21.670206</ele>
        <time>2020-05-24T21:13:01.323Z</time>
      </trkpt>
      <trkpt lat="50.51082" lon="3.48534">
        <ele>21.694213</ele>
        <time>2020-05-24T21:13:05.531Z</time>
      </trkpt>
      <trkpt lat="50.51087" lon="3.48604">
        <ele>21.754692</ele>
        <time>2020-05-24T21:13:15.531Z</time>
      </trkpt>
      <trkpt lat="50.51084" lon="3.48625">
        <ele>21.773276</ele>
        <time>2020-05-24T21:13:18.757Z</time>
      </trkpt>
      <trkpt lat="50.51065" lon="3.48691">
        <ele>21.612057</ele>
        <time>2020-05-24T21:13:28.826Z</time>
      </trkpt>
      <trkpt lat="50.51052" lon="3.48729">
        <ele>21.412305</ele>
        <time>2020-05-24T21:13:34.729Z</time>
      </trkpt>
      <trkpt lat="50.51035" lon="3.48756">
        <ele>21.24029</ele>
        <time>2020-05-24T21:13:39.640Z</time>
      </trkpt>
      <trkpt lat="50.51022" lon="3.48759">
        <ele>21.141628</ele>
        <time>2020-05-24T21:13:42.432Z</time>
      </trkpt>
      <trkpt lat="50.5095" lon="3.4873">
        <ele>20.608774</ele>
        <time>2020-05-24T21:13:56.408Z</time>
      </trkpt>
      <trkpt lat="50.50894" lon="3.48736">
        <ele>20.018023</ele>
        <time>2020-05-24T21:14:06.900Z</time>
      </trkpt>
      <trkpt lat="50.50863" lon="3.48799">
        <ele>19.420264</ele>
        <time>2020-05-24T21:14:16.469Z</time>
      </trkpt>
      <trkpt lat="50.50851" lon="3.48822">
        <ele>19.203841</ele>
        <time>2020-05-24T21:14:19.978Z</time>
      </trkpt>
      <trkpt lat="50.50848" lon="3.48828">
        <ele>19.142324</ele>
        <time>2020-05-24T21:14:20.959Z</time>
      </trkpt>
      <trkpt lat="50.50829" lon="3.48861">
        <ele>18.809779</ele>
        <time>2020-05-24T21:14:26.366Z</time>
      </trkpt>
      <trkpt lat="50.50795" lon="3.48891">
        <ele>18.370224</ele>
        <time>2020-05-24T21:14:33.781Z</time>
      </trkpt>
      <trkpt lat="50.50772" lon="3.48889">
        <ele>18.213282</ele>
        <time>2020-05-24T21:14:38.226Z</time>
      </trkpt>
      <trkpt lat="50.50762" lon="3.48885">
        <ele>18.14306</ele>
        <time>2020-05-24T21:14:40.233Z</time>
      </trkpt>
      <trkpt lat="50.5075" lon="3.48876">
        <ele>18.052024</ele>
        <time>2020-05-24T21:14:42.812Z</time>
      </trkpt>
      <trkpt lat="50.50697" lon="3.48851">
        <ele>17.673042</ele>
        <time>2020-05-24T21:14:54.125Z</time>
      </trkpt>
      <trkpt lat="50.50675" lon="3.48848">
        <ele>17.526641</ele>
        <time>2020-05-24T21:14:58.486Z</time>
      </trkpt>
      <trkpt lat="50.50664" lon="3.48854">
        <ele>17.444723</ele>
        <time>2020-05-24T21:15:01.007Z</time>
      </trkpt>
      <trkpt lat="50.50654" lon="3.48871">
        <ele>17.34327</ele>
        <time>2020-05-24T21:15:04.029Z</time>
      </trkpt>
      <trkpt lat="50.5064" lon="3.48922">
        <ele>17.136117</ele>
        <time>2020-05-24T21:15:11.216Z</time>
      </trkpt>
      <trkpt lat="50.50629" lon="3.48944">
        <ele>17.07745</ele>
        <time>2020-05-24T21:15:14.960Z</time>
      </trkpt>
      <trkpt lat="50.50551" lon="3.4902">
        <ele>16.775962</ele>
        <time>2020-05-24T21:15:34.473Z</time>
      </trkpt>
      <trkpt lat="50.50468" lon="3.49131">
        <ele>16.54747</ele>
        <time>2020-05-24T21:15:57.659Z</time>
      </trkpt>
      <trkpt lat="50.50464" lon="3.49133">
        <ele>16.545051</ele>
        <time>2020-05-24T21:15:58.451Z</time>
      </trkpt>
      <trkpt lat="50.50399" lon="3.49173">
        <ele>16.499582</ele>
        <time>2020-05-24T21:16:13.902Z</time>
      </trkpt>
      <trkpt lat="50.5033" lon="3.49228">
        <ele>16.464999</ele>
        <time>2020-05-24T21:16:31.533Z</time>
      </trkpt>
      <trkpt lat="50.50301" lon="3.49249">
        <ele>16.469535</ele>
        <time>2020-05-24T21:16:38.857Z</time>
      </trkpt>
      <trkpt lat="50.50284" lon="3.49261">
        <ele>16.47217</ele>
        <time>2020-05-24T21:16:43.033Z</time>
      </trkpt>
      <trkpt lat="50.50222" lon="3.493">
        <ele>16.481518</ele>
        <time>2020-05-24T21:16:57.964Z</time>
      </trkpt>
      <trkpt lat="50.50197" lon="3.49315">
        <ele>16.485203</ele>
        <time>2020-05-24T21:17:03.761Z</time>
      </trkpt>
      <trkpt lat="50.50191" lon="3.49319">
        <ele>16.48617</ele>
        <time>2020-05-24T21:17:05.333Z</time>
      </trkpt>
      <trkpt lat="50.50184" lon="3.49323">
        <ele>16.487222</ele>
        <time>2020-05-24T21:17:06.862Z</time>
      </trkpt>
      <trkpt lat="50.50056" lon="3.49423">
        <ele>16.292688</ele>
        <time>2020-05-24T21:17:37.295Z</time>
      </trkpt>
      <trkpt lat="50.49891" lon="3.49621">
        <ele>16.432833</ele>
        <time>2020-05-24T21:18:24.163Z</time>
      </trkpt>
      <trkpt lat="50.49885" lon="3.49626">
        <ele>16.439801</ele>
        <time>2020-05-24T21:18:25.665Z</time>
      </trkpt>
      <trkpt lat="50.49872" lon="3.49635">
        <ele>16.484913</ele>
        <time>2020-05-24T21:18:29.295Z</time>
      </trkpt>
      <trkpt lat="50.49868" lon="3.49638">
        <ele>16.499955</ele>
        <time>2020-05-24T21:18:30.175Z</time>
      </trkpt>
      <trkpt lat="50.4984" lon="3.49655">
        <ele>16.621842</ele>
        <time>2020-05-24T21:18:37.499Z</time>
      </trkpt>
      <trkpt lat="50.49786" lon="3.49689">
        <ele>16.859762</ele>
        <time>2020-05-24T21:18:51.830Z</time>
      </trkpt>
      <trkpt lat="50.49674" lon="3.49784">
        <ele>17.125713</ele>
        <time>2020-05-24T21:19:21.988Z</time>
      </trkpt>
      <trkpt lat="50.49561" lon="3.49862">
        <ele>16.996356</ele>
        <time>2020-05-24T21:19:48.387Z</time>
      </trkpt>
      <trkpt lat="50.49552" lon="3.49866">
        <ele>16.974843</ele>
        <time>2020-05-24T21:19:50.409Z</time>
      </trkpt>
      <trkpt lat="50.49546" lon="3.49865">
        <ele>16.947472</ele>
        <time>2020-05-24T21:19:51.420Z</time>
      </trkpt>
      <trkpt lat="50.49496" lon="3.49786">
        <ele>16.580926</ele>
        <time>2020-05-24T21:20:05.904Z</time>
      </trkpt>
      <trkpt lat="50.49442" lon="3.49791">
        <ele>16.29875</ele>
        <time>2020-05-24T21:20:16.907Z</time>
      </trkpt>
      <trkpt lat="50.4937" lon="3.49783">
        <ele>16.073969</ele>
        <time>2020-05-24T21:20:31.766Z</time>
      </trkpt>
      <trkpt lat="50.49356" lon="3.49781">
        <ele>16.08329</ele>
        <time>2020-05-24T21:20:34.786Z</time>
      </trkpt>
      <trkpt lat="50.49327" lon="3.49756">
        <ele>16.104588</ele>
        <time>2020-05-24T21:20:42.206Z</time>
      </trkpt>
      <trkpt lat="50.49308" lon="3.49756">
        <ele>16.116512</ele>
        <time>2020-05-24T21:20:46.547Z</time>
      </trkpt>
      <trkpt lat="50.49288" lon="3.49767">
        <ele>16.130216</ele>
        <time>2020-05-24T21:20:51.457Z</time>
      </trkpt>
      <trkpt lat="50.49284" lon="3.49771">
        <ele>16.133416</ele>
        <time>2020-05-24T21:20:52.632Z</time>
      </trkpt>
      <trkpt lat="50.49282" lon="3.49773">
        <ele>16.135054</ele>
        <time>2020-05-24T21:20:53.379Z</time>
      </trkpt>
      <trkpt lat="50.49208" lon="3.49841">
        <ele>16.25153</ele>
        <time>2020-05-24T21:21:13.225Z</time>
      </trkpt>
      <trkpt lat="50.49201" lon="3.49848">
        <ele>16.27802</ele>
        <time>2020-05-24T21:21:15.408Z</time>
      </trkpt>
      <trkpt lat="50.49196" lon="3.49853">
        <ele>16.294656</ele>
        <time>2020-05-24T21:21:16.689Z</time>
      </trkpt>
      <trkpt lat="50.49191" lon="3.49853">
        <ele>16.311637</ele>
        <time>2020-05-24T21:21:18.074Z</time>
      </trkpt>
      <trkpt lat="50.49094" lon="3.49838">
        <ele>16.605932</ele>
        <time>2020-05-24T21:21:41.308Z</time>
      </trkpt>
      <trkpt lat="50.49082" lon="3.49844">
        <ele>16.64487</ele>
        <time>2020-05-24T21:21:44.300Z</time>
      </trkpt>
      <trkpt lat="50.49" lon="3.49921">
        <ele>16.525064</ele>
        <time>2020-05-24T21:22:05.023Z</time>
      </trkpt>
      <trkpt lat="50.48953" lon="3.49914">
        <ele>16.39664</ele>
        <time>2020-05-24T21:22:14.767Z</time>
      </trkpt>
      <trkpt lat="50.4895" lon="3.49913">
        <ele>16.38864</ele>
        <time>2020-05-24T21:22:15.290Z</time>
      </trkpt>
      <trkpt lat="50.48934" lon="3.49909">
        <ele>16.344383</ele>
        <time>2020-05-24T21:22:18.681Z</time>
      </trkpt>
      <trkpt lat="50.48927" lon="3.49907">
        <ele>16.323929</ele>
        <time>2020-05-24T21:22:20.334Z</time>
      </trkpt>
      <trkpt lat="50.48914" lon="3.49904">
        <ele>16.288779</ele>
        <time>2020-05-24T21:22:23.135Z</time>
      </trkpt>
      <trkpt lat="50.48911" lon="3.49902">
        <ele>16.27885</ele>
        <time>2020-05-24T21:22:23.946Z</time>
      </trkpt>
      <trkpt lat="50.48908" lon="3.49897">
        <ele>16.266702</ele>
        <time>2020-05-24T21:22:24.804Z</time>
      </trkpt>
      <trkpt lat="50.48906" lon="3.49893">
        <ele>16.256565</ele>
        <time>2020-05-24T21:22:25.625Z</time>
      </trkpt>
      <trkpt lat="50.48879" lon="3.49766">
        <ele>16.050156</ele>
        <time>2020-05-24T21:22:43.737Z</time>
      </trkpt>
      <trkpt lat="50.4887" lon="3.49728">
        <ele>15.989913</ele>
        <time>2020-05-24T21:22:49.142Z</time>
      </trkpt>
      <trkpt lat="50.48861" lon="3.49706">
        <ele>15.948752</ele>
        <time>2020-05-24T21:22:52.967Z</time>
      </trkpt>
      <trkpt lat="50.48847" lon="3.49688">
        <ele>15.90606</ele>
        <time>2020-05-24T21:22:56.743Z</time>
      </trkpt>
      <trkpt lat="50.48765" lon="3.49649">
        <ele>15.779412</ele>
        <time>2020-05-24T21:23:15.318Z</time>
      </trkpt>
      <trkpt lat="50.48736" lon="3.49611">
        <ele>15.761947</ele>
        <time>2020-05-24T21:23:23.599Z</time>
      </trkpt>
      <trkpt lat="50.48731" lon="3.4961">
        <ele>15.759253</ele>
        <time>2020-05-24T21:23:24.850Z</time>
      </trkpt>
      <trkpt lat="50.48684" lon="3.49642">
        <ele>15.735541</ele>
        <time>2020-05-24T21:23:35.950Z</time>
      </trkpt>
      <trkpt lat="50.48628" lon="3.49654">
        <ele>15.744769</ele>
        <time>2020-05-24T21:23:48.511Z</time>
      </trkpt>
      <trkpt lat="50.48604" lon="3.49668">
        <ele>15.815141</ele>
        <time>2020-05-24T21:23:54.385Z</time>
      </trkpt>
      <trkpt lat="50.4857" lon="3.49704">
        <ele>15.92706</ele>
        <time>2020-05-24T21:24:04.328Z</time>
      </trkpt>
      <trkpt lat="50.48526" lon="3.49777">
        <ele>16.100752</ele>
        <time>2020-05-24T21:24:19.525Z</time>
      </trkpt>
      <trkpt lat="50.4851" lon="3.49792">
        <ele>16.150561</ele>
        <time>2020-05-24T21:24:23.912Z</time>
      </trkpt>
      <trkpt lat="50.48497" lon="3.49796">
        <ele>16.187443</ele>
        <time>2020-05-24T21:24:26.987Z</time>
      </trkpt>
      <trkpt lat="50.48475" lon="3.49799">
        <ele>16.178608</ele>
        <time>2020-05-24T21:24:32.091Z</time>
      </trkpt>
      <trkpt lat="50.4847" lon="3.498">
        <ele>16.169938</ele>
        <time>2020-05-24T21:24:33.300Z</time>
      </trkpt>
      <trkpt lat="50.48464" lon="3.49803">
        <ele>16.159385</ele>
        <time>2020-05-24T21:24:34.754Z</time>
      </trkpt>
      <trkpt lat="50.48456" lon="3.4981">
        <ele>16.14422</ele>
        <time>2020-05-24T21:24:36.887Z</time>
      </trkpt>
      <trkpt lat="50.48417" lon="3.49873">
        <ele>16.054209</ele>
        <time>2020-05-24T21:24:49.373Z</time>
      </trkpt>
      <trkpt lat="50.48317" lon="3.50036">
        <ele>15.582405</ele>
        <time>2020-05-24T21:25:19.052Z</time>
      </trkpt>
      <trkpt lat="50.48314" lon="3.50065">
        <ele>15.473161</ele>
        <time>2020-05-24T21:25:22.750Z</time>
      </trkpt>
      <trkpt lat="50.48334" lon="3.50155">
        <ele>15.116595</ele>
        <time>2020-05-24T21:25:34.962Z</time>
      </trkpt>
      <trkpt lat="50.48334" lon="3.50262">
        <ele>14.803473</ele>
        <time>2020-05-24T21:25:48.785Z</time>
      </trkpt>
      <trkpt lat="50.48195" lon="3.50547">
        <ele>14.509985</ele>
        <time>2020-05-24T21:26:38.378Z</time>
      </trkpt>
      <trkpt lat="50.48156" lon="3.50601">
        <ele>14.567308</ele>
        <time>2020-05-24T21:26:50.481Z</time>
      </trkpt>
      <trkpt lat="50.48134" lon="3.50632">
        <ele>14.600098</ele>
        <time>2020-05-24T21:26:57.544Z</time>
      </trkpt>
      <trkpt lat="50.48087" lon="3.50718">
        <ele>14.859974</ele>
        <time>2020-05-24T21:27:14.794Z</time>
      </trkpt>
      <trkpt lat="50.48047" lon="3.50871">
        <ele>15.38527</ele>
        <time>2020-05-24T21:27:40.543Z</time>
      </trkpt>
      <trkpt lat="50.47986" lon="3.50967">
        <ele>15.861805</ele>
        <time>2020-05-24T21:28:01.474Z</time>
      </trkpt>
      <trkpt lat="50.47952" lon="3.51044">
        <ele>16.208105</ele>
        <time>2020-05-24T21:28:16.083Z</time>
      </trkpt>
      <trkpt lat="50.47858" lon="3.51324">
        <ele>17.345151</ele>
        <time>2020-05-24T21:29:05.741Z</time>
      </trkpt>
      <trkpt lat="50.47824" lon="3.51488">
        <ele>17.683121</ele>
        <time>2020-05-24T21:29:32.153Z</time>
      </trkpt>
      <trkpt lat="50.47785" lon="3.51628">
        <ele>17.84134</ele>
        <time>2020-05-24T21:29:54.274Z</time>
      </trkpt>
      <trkpt lat="50.47784" lon="3.51643">
        <ele>17.857032</ele>
        <time>2020-05-24T21:29:56.400Z</time>
      </trkpt>
      <trkpt lat="50.47784" lon="3.5165">
        <ele>17.858397</ele>
        <time>2020-05-24T21:29:57.364Z</time>
      </trkpt>
      <trkpt lat="50.47783" lon="3.51663">
        <ele>17.813035</ele>
        <time>2020-05-24T21:29:59.164Z</time>
      </trkpt>
      <trkpt lat="50.47774" lon="3.51664">
        <ele>17.765235</ele>
        <time>2020-05-24T21:30:01.012Z</time>
      </trkpt>
      <trkpt lat="50.47726" lon="3.51668">
        <ele>17.495175</ele>
        <time>2020-05-24T21:30:11.486Z</time>
      </trkpt>
      <trkpt lat="50.47675" lon="3.51675">
        <ele>17.213145</ele>
        <time>2020-05-24T21:30:22.253Z</time>
      </trkpt>
      <trkpt lat="50.47619" lon="3.51684">
        <ele>16.898811</ele>
        <time>2020-05-24T21:30:33.981Z</time>
      </trkpt>
      <trkpt lat="50.47604" lon="3.51687">
        <ele>16.846342</ele>
        <time>2020-05-24T21:30:37.167Z</time>
      </trkpt>
      <trkpt lat="50.47587" lon="3.51707">
        <ele>16.804816</ele>
        <time>2020-05-24T21:30:41.475Z</time>
      </trkpt>
      <trkpt lat="50.47527" lon="3.51799">
        <ele>16.635976</ele>
        <time>2020-05-24T21:30:59.584Z</time>
      </trkpt>
      <trkpt lat="50.47496" lon="3.51846">
        <ele>16.550416</ele>
        <time>2020-05-24T21:31:09.658Z</time>
      </trkpt>
      <trkpt lat="50.47462" lon="3.5188">
        <ele>16.671704</ele>
        <time>2020-05-24T21:31:19.928Z</time>
      </trkpt>
      <trkpt lat="50.47393" lon="3.51949">
        <ele>17.442784</ele>
        <time>2020-05-24T21:31:42.147Z</time>
      </trkpt>
      <trkpt lat="50.47369" lon="3.51978">
        <ele>17.731271</ele>
        <time>2020-05-24T21:31:50.715Z</time>
      </trkpt>
      <trkpt lat="50.47331" lon="3.5204">
        <ele>18.242344</ele>
        <time>2020-05-24T21:32:05.638Z</time>
      </trkpt>
      <trkpt lat="50.47323" lon="3.52048">
        <ele>18.316553</ele>
        <time>2020-05-24T21:32:08.593Z</time>
      </trkpt>
      <trkpt lat="50.47303" lon="3.52064">
        <ele>18.491736</ele>
        <time>2020-05-24T21:32:14.481Z</time>
      </trkpt>
      <trkpt lat="50.47268" lon="3.52088">
        <ele>18.793255</ele>
        <time>2020-05-24T21:32:25.272Z</time>
      </trkpt>
      <trkpt lat="50.47255" lon="3.52101">
        <ele>18.910135</ele>
        <time>2020-05-24T21:32:29.791Z</time>
      </trkpt>
      <trkpt lat="50.47248" lon="3.52111">
        <ele>18.9858</ele>
        <time>2020-05-24T21:32:32.246Z</time>
      </trkpt>
      <trkpt lat="50.4724" lon="3.5211">
        <ele>19.051724</ele>
        <time>2020-05-24T21:32:34.257Z</time>
      </trkpt>
      <trkpt lat="50.47223" lon="3.52117">
        <ele>19.185847</ele>
        <time>2020-05-24T21:32:39.021Z</time>
      </trkpt>
      <trkpt lat="50.4718" lon="3.52157">
        <ele>19.57767</ele>
        <time>2020-05-24T21:32:51.381Z</time>
      </trkpt>
      <trkpt lat="50.47123" lon="3.52206">
        <ele>19.309138</ele>
        <time>2020-05-24T21:33:06.388Z</time>
      </trkpt>
      <trkpt lat="50.47112" lon="3.52214">
        <ele>19.251969</ele>
        <time>2020-05-24T21:33:08.770Z</time>
      </trkpt>
      <trkpt lat="50.47106" lon="3.52218">
        <ele>19.218753</ele>
        <time>2020-05-24T21:33:10.184Z</time>
      </trkpt>
      <trkpt lat="50.47043" lon="3.5234">
        <ele>18.719552</ele>
        <time>2020-05-24T21:33:30.671Z</time>
      </trkpt>
      <trkpt lat="50.47003" lon="3.52294">
        <ele>18.393701</ele>
        <time>2020-05-24T21:33:40.524Z</time>
      </trkpt>
      <trkpt lat="50.46989" lon="3.52278">
        <ele>18.280958</ele>
        <time>2020-05-24T21:33:43.959Z</time>
      </trkpt>
      <trkpt lat="50.46985" lon="3.52273">
        <ele>18.250064</ele>
        <time>2020-05-24T21:33:44.946Z</time>
      </trkpt>
      <trkpt lat="50.46961" lon="3.52246">
        <ele>18.05724</ele>
        <time>2020-05-24T21:33:50.804Z</time>
      </trkpt>
      <trkpt lat="50.46903" lon="3.52179">
        <ele>17.583408</ele>
        <time>2020-05-24T21:34:05.354Z</time>
      </trkpt>
      <trkpt lat="50.46859" lon="3.52136">
        <ele>17.565633</ele>
        <time>2020-05-24T21:34:16.621Z</time>
      </trkpt>
      <trkpt lat="50.46838" lon="3.52118">
        <ele>17.581171</ele>
        <time>2020-05-24T21:34:22.137Z</time>
      </trkpt>
      <trkpt lat="50.46795" lon="3.52081">
        <ele>17.612727</ele>
        <time>2020-05-24T21:34:33.837Z</time>
      </trkpt>
      <trkpt lat="50.46702" lon="3.52009">
        <ele>17.708876</ele>
        <time>2020-05-24T21:34:57.172Z</time>
      </trkpt>
      <trkpt lat="50.46599" lon="3.5194">
        <ele>17.859408</ele>
        <time>2020-05-24T21:35:22.728Z</time>
      </trkpt>
      <trkpt lat="50.46568" lon="3.51907">
        <ele>17.926455</ele>
        <time>2020-05-24T21:35:31.394Z</time>
      </trkpt>
      <trkpt lat="50.46439" lon="3.5173">
        <ele>18.41529</ele>
        <time>2020-05-24T21:36:11.503Z</time>
      </trkpt>
      <trkpt lat="50.46372" lon="3.51656">
        <ele>18.673021</ele>
        <time>2020-05-24T21:36:30.851Z</time>
      </trkpt>
      <trkpt lat="50.46353" lon="3.51643">
        <ele>18.73743</ele>
        <time>2020-05-24T21:36:35.773Z</time>
      </trkpt>
      <trkpt lat="50.46343" lon="3.51672">
        <ele>18.80417</ele>
        <time>2020-05-24T21:36:40.704Z</time>
      </trkpt>
      <trkpt lat="50.46277" lon="3.51833">
        <ele>19.116487</ele>
        <time>2020-05-24T21:37:09.443Z</time>
      </trkpt>
      <trkpt lat="50.46227" lon="3.52002">
        <ele>19.340694</ele>
        <time>2020-05-24T21:37:36.874Z</time>
      </trkpt>
      <trkpt lat="50.46192" lon="3.52082">
        <ele>19.239267</ele>
        <time>2020-05-24T21:37:50.633Z</time>
      </trkpt>
      <trkpt lat="50.46142" lon="3.52179">
        <ele>19.108843</ele>
        <time>2020-05-24T21:38:07.476Z</time>
      </trkpt>
      <trkpt lat="50.46125" lon="3.52213">
        <ele>19.063948</ele>
        <time>2020-05-24T21:38:13.112Z</time>
      </trkpt>
      <trkpt lat="50.46103" lon="3.52267">
        <ele>18.946933</ele>
        <time>2020-05-24T21:38:21.799Z</time>
      </trkpt>
      <trkpt lat="50.46093" lon="3.52304">
        <ele>18.871002</ele>
        <time>2020-05-24T21:38:27.053Z</time>
      </trkpt>
      <trkpt lat="50.4609" lon="3.52315">
        <ele>18.848111</ele>
        <time>2020-05-24T21:38:28.683Z</time>
      </trkpt>
      <trkpt lat="50.46044" lon="3.52616">
        <ele>18.579634</ele>
        <time>2020-05-24T21:39:10.790Z</time>
      </trkpt>
      <trkpt lat="50.46036" lon="3.52652">
        <ele>18.595278</ele>
        <time>2020-05-24T21:39:16.384Z</time>
      </trkpt>
      <trkpt lat="50.46006" lon="3.52747">
        <ele>18.640247</ele>
        <time>2020-05-24T21:39:32.653Z</time>
      </trkpt>
      <trkpt lat="50.45992" lon="3.52777">
        <ele>18.818197</ele>
        <time>2020-05-24T21:39:38.182Z</time>
      </trkpt>
      <trkpt lat="50.45942" lon="3.52731">
        <ele>19.275596</ele>
        <time>2020-05-24T21:39:52.404Z</time>
      </trkpt>
      <trkpt lat="50.45798" lon="3.52604">
        <ele>20.541899</ele>
        <time>2020-05-24T21:40:35.720Z</time>
      </trkpt>
      <trkpt lat="50.45747" lon="3.52559">
        <ele>20.970038</ele>
        <time>2020-05-24T21:40:51.188Z</time>
      </trkpt>
      <trkpt lat="50.45717" lon="3.52524">
        <ele>21.241101</ele>
        <time>2020-05-24T21:41:00.137Z</time>
      </trkpt>
      <trkpt lat="50.45677" lon="3.52459">
        <ele>21.230938</ele>
        <time>2020-05-24T21:41:13.353Z</time>
      </trkpt>
      <trkpt lat="50.45668" lon="3.52446">
        <ele>21.186942</ele>
        <time>2020-05-24T21:41:15.994Z</time>
      </trkpt>
      <trkpt lat="50.45655" lon="3.52443">
        <ele>21.139946</ele>
        <time>2020-05-24T21:41:18.864Z</time>
      </trkpt>
      <trkpt lat="50.45655" lon="3.52478">
        <ele>21.059709</ele>
        <time>2020-05-24T21:41:23.454Z</time>
      </trkpt>
      <trkpt lat="50.45654" lon="3.52492">
        <ele>21.026572</ele>
        <time>2020-05-24T21:41:25.347Z</time>
      </trkpt>
      <trkpt lat="50.45653" lon="3.52538">
        <ele>20.920027</ele>
        <time>2020-05-24T21:41:31.210Z</time>
      </trkpt>
      <trkpt lat="50.45644" lon="3.52847">
        <ele>20.034997</ele>
        <time>2020-05-24T21:42:10.563Z</time>
      </trkpt>
      <trkpt lat="50.45642" lon="3.52919">
        <ele>19.891587</ele>
        <time>2020-05-24T21:42:20.930Z</time>
      </trkpt>
      <trkpt lat="50.45632" lon="3.53265">
        <ele>20.849228</ele>
        <time>2020-05-24T21:43:14.742Z</time>
      </trkpt>
      <trkpt lat="50.45625" lon="3.53455">
        <ele>21.399972</ele>
        <time>2020-05-24T21:43:44.031Z</time>
      </trkpt>
      <trkpt lat="50.45621" lon="3.53492">
        <ele>21.495941</ele>
        <time>2020-05-24T21:43:49.671Z</time>
      </trkpt>
      <trkpt lat="50.4562" lon="3.53507">
        <ele>21.53069</ele>
        <time>2020-05-24T21:43:51.890Z</time>
      </trkpt>
      <trkpt lat="50.4562" lon="3.5351">
        <ele>21.53829</ele>
        <time>2020-05-24T21:43:52.509Z</time>
      </trkpt>
      <trkpt lat="50.45607" lon="3.53571">
        <ele>21.68831</ele>
        <time>2020-05-24T21:44:02.177Z</time>
      </trkpt>
      <trkpt lat="50.45595" lon="3.53629">
        <ele>21.832947</ele>
        <time>2020-05-24T21:44:11.564Z</time>
      </trkpt>
      <trkpt lat="50.45577" lon="3.53714">
        <ele>22.04366</ele>
        <time>2020-05-24T21:44:25.173Z</time>
      </trkpt>
      <trkpt lat="50.45542" lon="3.53874">
        <ele>21.983009</ele>
        <time>2020-05-24T21:44:49.962Z</time>
      </trkpt>
      <trkpt lat="50.45531" lon="3.5392">
        <ele>21.940575</ele>
        <time>2020-05-24T21:44:56.727Z</time>
      </trkpt>
      <trkpt lat="50.45518" lon="3.53952">
        <ele>21.907268</ele>
        <time>2020-05-24T21:45:01.923Z</time>
      </trkpt>
      <trkpt lat="50.45516" lon="3.53956">
        <ele>21.903178</ele>
        <time>2020-05-24T21:45:02.564Z</time>
      </trkpt>
      <trkpt lat="50.45413" lon="3.54163">
        <ele>20.726896</ele>
        <time>2020-05-24T21:45:35.296Z</time>
      </trkpt>
      <trkpt lat="50.45402" lon="3.54212">
        <ele>20.451848</ele>
        <time>2020-05-24T21:45:41.608Z</time>
      </trkpt>
      <trkpt lat="50.45382" lon="3.54342">
        <ele>20.402729</ele>
        <time>2020-05-24T21:45:59.098Z</time>
      </trkpt>
      <trkpt lat="50.45376" lon="3.5438">
        <ele>20.414966</ele>
        <time>2020-05-24T21:46:04.808Z</time>
      </trkpt>
      <trkpt lat="50.45363" lon="3.5443">
        <ele>20.431909</ele>
        <time>2020-05-24T21:46:12.981Z</time>
      </trkpt>
      <trkpt lat="50.45352" lon="3.54445">
        <ele>20.439074</ele>
        <time>2020-05-24T21:46:16.462Z</time>
      </trkpt>
      <trkpt lat="50.45349" lon="3.54451">
        <ele>20.441543</ele>
        <time>2020-05-24T21:46:17.715Z</time>
      </trkpt>
      <trkpt lat="50.4527" lon="3.54577">
        <ele>21.176462</ele>
        <time>2020-05-24T21:46:47.514Z</time>
      </trkpt>
      <trkpt lat="50.45198" lon="3.5469">
        <ele>21.93486</ele>
        <time>2020-05-24T21:47:13.634Z</time>
      </trkpt>
      <trkpt lat="50.45161" lon="3.54745">
        <ele>21.823994</ele>
        <time>2020-05-24T21:47:25.138Z</time>
      </trkpt>
      <trkpt lat="50.45131" lon="3.54811">
        <ele>21.711074</ele>
        <time>2020-05-24T21:47:36.059Z</time>
      </trkpt>
      <trkpt lat="50.45077" lon="3.54935">
        <ele>21.386474</ele>
        <time>2020-05-24T21:47:55.346Z</time>
      </trkpt>
      <trkpt lat="50.44858" lon="3.55448">
        <ele>19.229648</ele>
        <time>2020-05-24T21:49:14.656Z</time>
      </trkpt>
      <trkpt lat="50.44812" lon="3.55538">
        <ele>19.243813</ele>
        <time>2020-05-24T21:49:31.461Z</time>
      </trkpt>
      <trkpt lat="50.44802" lon="3.55553">
        <ele>19.246431</ele>
        <time>2020-05-24T21:49:34.965Z</time>
      </trkpt>
      <trkpt lat="50.44797" lon="3.55553">
        <ele>19.247416</ele>
        <time>2020-05-24T21:49:36.190Z</time>
      </trkpt>
      <trkpt lat="50.44792" lon="3.55554">
        <ele>19.248438</ele>
        <time>2020-05-24T21:49:37.481Z</time>
      </trkpt>
      <trkpt lat="50.44787" lon="3.55557">
        <ele>19.249405</ele>
        <time>2020-05-24T21:49:38.650Z</time>
      </trkpt>
      <trkpt lat="50.44784" lon="3.5556">
        <ele>19.250093</ele>
        <time>2020-05-24T21:49:39.454Z</time>
      </trkpt>
      <trkpt lat="50.44777" lon="3.55579">
        <ele>19.254199</ele>
        <time>2020-05-24T21:49:43.117Z</time>
      </trkpt>
      <trkpt lat="50.44777" lon="3.55586">
        <ele>19.281733</ele>
        <time>2020-05-24T21:49:44.310Z</time>
      </trkpt>
      <trkpt lat="50.44777" lon="3.55593">
        <ele>19.308872</ele>
        <time>2020-05-24T21:49:45.400Z</time>
      </trkpt>
      <trkpt lat="50.4478" lon="3.55606">
        <ele>19.363</ele>
        <time>2020-05-24T21:49:47.624Z</time>
      </trkpt>
      <trkpt lat="50.44781" lon="3.55607">
        <ele>19.372261</ele>
        <time>2020-05-24T21:49:47.965Z</time>
      </trkpt>
      <trkpt lat="50.4477" lon="3.55653">
        <ele>19.564664</ele>
        <time>2020-05-24T21:49:56.140Z</time>
      </trkpt>
      <trkpt lat="50.44738" lon="3.55727">
        <ele>19.909136</ele>
        <time>2020-05-24T21:50:10.693Z</time>
      </trkpt>
      <trkpt lat="50.44734" lon="3.55735">
        <ele>19.948455</ele>
        <time>2020-05-24T21:50:12.334Z</time>
      </trkpt>
      <trkpt lat="50.44708" lon="3.55796">
        <ele>20.233367</ele>
        <time>2020-05-24T21:50:23.555Z</time>
      </trkpt>
      <trkpt lat="50.44696" lon="3.55823">
        <ele>20.34916</ele>
        <time>2020-05-24T21:50:28.579Z</time>
      </trkpt>
      <trkpt lat="50.4468" lon="3.55863">
        <ele>20.368945</ele>
        <time>2020-05-24T21:50:35.823Z</time>
      </trkpt>
      <trkpt lat="50.44669" lon="3.55887">
        <ele>20.381361</ele>
        <time>2020-05-24T21:50:40.402Z</time>
      </trkpt>
      <trkpt lat="50.44664" lon="3.55895">
        <ele>20.386162</ele>
        <time>2020-05-24T21:50:42.099Z</time>
      </trkpt>
      <trkpt lat="50.44481" lon="3.56212">
        <ele>20.351282</ele>
        <time>2020-05-24T21:51:41.449Z</time>
      </trkpt>
      <trkpt lat="50.44437" lon="3.56289">
        <ele>20.368669</ele>
        <time>2020-05-24T21:51:56.191Z</time>
      </trkpt>
      <trkpt lat="50.44407" lon="3.5634">
        <ele>20.418168</ele>
        <time>2020-05-24T21:52:06.569Z</time>
      </trkpt>
      <trkpt lat="50.44323" lon="3.56462">
        <ele>20.483365</ele>
        <time>2020-05-24T21:52:32.681Z</time>
      </trkpt>
      <trkpt lat="50.4426" lon="3.56536">
        <ele>20.264964</ele>
        <time>2020-05-24T21:52:49.652Z</time>
      </trkpt>
      <trkpt lat="50.44186" lon="3.56622">
        <ele>19.99197</ele>
        <time>2020-05-24T21:53:08.758Z</time>
      </trkpt>
      <trkpt lat="50.44104" lon="3.5672">
        <ele>19.430829</ele>
        <time>2020-05-24T21:53:29.651Z</time>
      </trkpt>
      <trkpt lat="50.44062" lon="3.56771">
        <ele>19.141956</ele>
        <time>2020-05-24T21:53:40.483Z</time>
      </trkpt>
      <trkpt lat="50.44049" lon="3.56796">
        <ele>19.038112</ele>
        <time>2020-05-24T21:53:44.682Z</time>
      </trkpt>
      <trkpt lat="50.4395" lon="3.56981">
        <ele>18.590229</ele>
        <time>2020-05-24T21:54:16.783Z</time>
      </trkpt>
      <trkpt lat="50.43923" lon="3.57033">
        <ele>18.632815</ele>
        <time>2020-05-24T21:54:26.465Z</time>
      </trkpt>
      <trkpt lat="50.43912" lon="3.57055">
        <ele>18.730311</ele>
        <time>2020-05-24T21:54:30.654Z</time>
      </trkpt>
      <trkpt lat="50.43877" lon="3.57123">
        <ele>19.038125</ele>
        <time>2020-05-24T21:54:44.329Z</time>
      </trkpt>
      <trkpt lat="50.43871" lon="3.57134">
        <ele>19.087243</ele>
        <time>2020-05-24T21:54:46.616Z</time>
      </trkpt>
      <trkpt lat="50.43767" lon="3.57306">
        <ele>20.150209</ele>
        <time>2020-05-24T21:55:25.187Z</time>
      </trkpt>
      <trkpt lat="50.43732" lon="3.57364">
        <ele>20.586208</ele>
        <time>2020-05-24T21:55:38.272Z</time>
      </trkpt>
      <trkpt lat="50.43723" lon="3.57379">
        <ele>20.701093</ele>
        <time>2020-05-24T21:55:41.768Z</time>
      </trkpt>
      <trkpt lat="50.43723" lon="3.57379">
        <ele>20.701093</ele>
        <time>2020-05-24T21:55:41.769Z</time>
      </trkpt>
      <trkpt lat="50.43723" lon="3.57379">
        <ele>20.701093</ele>
        <time>2020-05-24T21:55:41.779Z</time>
      </trkpt>
      <trkpt lat="50.43698" lon="3.57422">
        <ele>21.022692</ele>
        <time>2020-05-24T21:55:51.498Z</time>
      </trkpt>
      <trkpt lat="50.43671" lon="3.57466">
        <ele>21.43135</ele>
        <time>2020-05-24T21:56:01.616Z</time>
      </trkpt>
      <trkpt lat="50.43661" lon="3.57483">
        <ele>21.590851</ele>
        <time>2020-05-24T21:56:05.520Z</time>
      </trkpt>
      <trkpt lat="50.43656" lon="3.57492">
        <ele>21.668378</ele>
        <time>2020-05-24T21:56:07.399Z</time>
      </trkpt>
      <trkpt lat="50.43617" lon="3.57559">
        <ele>22.290991</ele>
        <time>2020-05-24T21:56:22.776Z</time>
      </trkpt>
      <trkpt lat="50.43596" lon="3.57594">
        <ele>22.612042</ele>
        <time>2020-05-24T21:56:30.751Z</time>
      </trkpt>
      <trkpt lat="50.43573" lon="3.57634">
        <ele>22.982236</ele>
        <time>2020-05-24T21:56:40.030Z</time>
      </trkpt>
      <trkpt lat="50.43567" lon="3.57645">
        <ele>23.080157</ele>
        <time>2020-05-24T21:56:42.751Z</time>
      </trkpt>
      <trkpt lat="50.43558" lon="3.5766">
        <ele>23.204635</ele>
        <time>2020-05-24T21:56:46.322Z</time>
      </trkpt>
      <trkpt lat="50.43547" lon="3.57679">
        <ele>23.368538</ele>
        <time>2020-05-24T21:56:50.888Z</time>
      </trkpt>
      <trkpt lat="50.43521" lon="3.57723">
        <ele>23.747057</ele>
        <time>2020-05-24T21:57:01.387Z</time>
      </trkpt>
      <trkpt lat="50.43508" lon="3.57757">
        <ele>23.996633</ele>
        <time>2020-05-24T21:57:08.175Z</time>
      </trkpt>
      <trkpt lat="50.4348" lon="3.57837">
        <ele>24.570553</ele>
        <time>2020-05-24T21:57:23.275Z</time>
      </trkpt>
      <trkpt lat="50.4348" lon="3.57837">
        <ele>24.570553</ele>
        <time>2020-05-24T21:57:23.336Z</time>
      </trkpt>
      <trkpt lat="50.43457" lon="3.57796">
        <ele>24.750811</ele>
        <time>2020-05-24T21:57:31.882Z</time>
      </trkpt>
      <trkpt lat="50.43456" lon="3.57788">
        <ele>24.74216</ele>
        <time>2020-05-24T21:57:33.363Z</time>
      </trkpt>
      <trkpt lat="50.43433" lon="3.57746">
        <ele>24.686852</ele>
        <time>2020-05-24T21:57:41.531Z</time>
      </trkpt>
      <trkpt lat="50.43426" lon="3.57745">
        <ele>24.676079</ele>
        <time>2020-05-24T21:57:43.036Z</time>
      </trkpt>
      <trkpt lat="50.43417" lon="3.57726">
        <ele>24.653622</ele>
        <time>2020-05-24T21:57:46.175Z</time>
      </trkpt>
      <trkpt lat="50.43387" lon="3.57771">
        <ele>24.589247</ele>
        <time>2020-05-24T21:57:55.235Z</time>
      </trkpt>
      <trkpt lat="50.43385" lon="3.5778">
        <ele>24.578942</ele>
        <time>2020-05-24T21:57:56.821Z</time>
      </trkpt>
      <trkpt lat="50.43356" lon="3.57826">
        <ele>24.515819</ele>
        <time>2020-05-24T21:58:05.599Z</time>
      </trkpt>
      <trkpt lat="50.4336" lon="3.57832">
        <ele>24.507866</ele>
        <time>2020-05-24T21:58:06.726Z</time>
      </trkpt>
      <trkpt lat="50.43324" lon="3.57875">
        <ele>24.355214</ele>
        <time>2020-05-24T21:58:16.460Z</time>
      </trkpt>
      <trkpt lat="50.43315" lon="3.5786">
        <ele>24.305618</ele>
        <time>2020-05-24T21:58:19.147Z</time>
      </trkpt>
      <trkpt lat="50.43308" lon="3.57846">
        <ele>24.26101</ele>
        <time>2020-05-24T21:58:21.503Z</time>
      </trkpt>
      <trkpt lat="50.43266" lon="3.57753">
        <ele>23.982015</ele>
        <time>2020-05-24T21:58:36.360Z</time>
      </trkpt>
      <trkpt lat="50.43262" lon="3.57741">
        <ele>23.948081</ele>
        <time>2020-05-24T21:58:38.163Z</time>
      </trkpt>
      <trkpt lat="50.43259" lon="3.57735">
        <ele>23.930287</ele>
        <time>2020-05-24T21:58:39.092Z</time>
      </trkpt>
      <trkpt lat="50.43243" lon="3.57695">
        <ele>23.814029</ele>
        <time>2020-05-24T21:58:45.532Z</time>
      </trkpt>
      <trkpt lat="50.43238" lon="3.57685">
        <ele>23.805999</ele>
        <time>2020-05-24T21:58:47.290Z</time>
      </trkpt>
      <trkpt lat="50.43234" lon="3.57674">
        <ele>23.815539</ele>
        <time>2020-05-24T21:58:49.175Z</time>
      </trkpt>
      <trkpt lat="50.43218" lon="3.5763">
        <ele>23.854723</ele>
        <time>2020-05-24T21:58:56.822Z</time>
      </trkpt>
      <trkpt lat="50.43212" lon="3.57616">
        <ele>23.866902</ele>
        <time>2020-05-24T21:58:59.218Z</time>
      </trkpt>
      <trkpt lat="50.43208" lon="3.57607">
        <ele>23.875345</ele>
        <time>2020-05-24T21:59:00.832Z</time>
      </trkpt>
      <trkpt lat="50.43194" lon="3.57575">
        <ele>23.904987</ele>
        <time>2020-05-24T21:59:06.704Z</time>
      </trkpt>
      <trkpt lat="50.43191" lon="3.57568">
        <ele>23.911904</ele>
        <time>2020-05-24T21:59:07.972Z</time>
      </trkpt>
      <trkpt lat="50.4317" lon="3.57524">
        <ele>23.954269</ele>
        <time>2020-05-24T21:59:16.205Z</time>
      </trkpt>
      <trkpt lat="50.43158" lon="3.57502">
        <ele>23.976337</ele>
        <time>2020-05-24T21:59:20.412Z</time>
      </trkpt>
      <trkpt lat="50.43141" lon="3.57476">
        <ele>24.004277</ele>
        <time>2020-05-24T21:59:25.692Z</time>
      </trkpt>
      <trkpt lat="50.43116" lon="3.57435">
        <ele>23.97477</ele>
        <time>2020-05-24T21:59:33.822Z</time>
      </trkpt>
      <trkpt lat="50.43072" lon="3.57363">
        <ele>23.873967</ele>
        <time>2020-05-24T21:59:47.910Z</time>
      </trkpt>
      <trkpt lat="50.43058" lon="3.57339">
        <ele>23.841475</ele>
        <time>2020-05-24T21:59:52.564Z</time>
      </trkpt>
      <trkpt lat="50.42914" lon="3.5705">
        <ele>22.803699</ele>
        <time>2020-05-24T22:00:40.793Z</time>
      </trkpt>
      <trkpt lat="50.42892" lon="3.57007">
        <ele>22.569631</ele>
        <time>2020-05-24T22:00:47.787Z</time>
      </trkpt>
      <trkpt lat="50.42812" lon="3.56901">
        <ele>21.80522</ele>
        <time>2020-05-24T22:01:08.213Z</time>
      </trkpt>
      <trkpt lat="50.42768" lon="3.56845">
        <ele>21.401762</ele>
        <time>2020-05-24T22:01:19.438Z</time>
      </trkpt>
      <trkpt lat="50.42755" lon="3.5682">
        <ele>21.405507</ele>
        <time>2020-05-24T22:01:23.788Z</time>
      </trkpt>
      <trkpt lat="50.42746" lon="3.56809">
        <ele>21.407533</ele>
        <time>2020-05-24T22:01:26.194Z</time>
      </trkpt>
      <trkpt lat="50.42723" lon="3.56784">
        <ele>21.412607</ele>
        <time>2020-05-24T22:01:32.304Z</time>
      </trkpt>
      <trkpt lat="50.4271" lon="3.56764">
        <ele>21.415904</ele>
        <time>2020-05-24T22:01:36.440Z</time>
      </trkpt>
      <trkpt lat="50.42653" lon="3.56687">
        <ele>21.429474</ele>
        <time>2020-05-24T22:01:54.092Z</time>
      </trkpt>
      <trkpt lat="50.42587" lon="3.56598">
        <ele>21.513803</ele>
        <time>2020-05-24T22:02:14.343Z</time>
      </trkpt>
      <trkpt lat="50.42534" lon="3.56527">
        <ele>21.60413</ele>
        <time>2020-05-24T22:02:30.029Z</time>
      </trkpt>
      <trkpt lat="50.42527" lon="3.56518">
        <ele>21.615831</ele>
        <time>2020-05-24T22:02:32.021Z</time>
      </trkpt>
      <trkpt lat="50.42517" lon="3.56502">
        <ele>21.634116</ele>
        <time>2020-05-24T22:02:35.211Z</time>
      </trkpt>
      <trkpt lat="50.42513" lon="3.56497">
        <ele>21.641618</ele>
        <time>2020-05-24T22:02:36.468Z</time>
      </trkpt>
      <trkpt lat="50.42508" lon="3.56491">
        <ele>21.649126</ele>
        <time>2020-05-24T22:02:37.809Z</time>
      </trkpt>
      <trkpt lat="50.42499" lon="3.56478">
        <ele>21.664717</ele>
        <time>2020-05-24T22:02:40.548Z</time>
      </trkpt>
      <trkpt lat="50.42493" lon="3.56468">
        <ele>21.709152</ele>
        <time>2020-05-24T22:02:42.688Z</time>
      </trkpt>
      <trkpt lat="50.42485" lon="3.56462">
        <ele>21.75547</ele>
        <time>2020-05-24T22:02:44.463Z</time>
      </trkpt>
      <trkpt lat="50.42473" lon="3.56446">
        <ele>21.845932</ele>
        <time>2020-05-24T22:02:48.078Z</time>
      </trkpt>
      <trkpt lat="50.42451" lon="3.56417">
        <ele>22.00762</ele>
        <time>2020-05-24T22:02:54.622Z</time>
      </trkpt>
      <trkpt lat="50.42451" lon="3.56417">
        <ele>22.010305</ele>
        <time>2020-05-24T22:02:54.739Z</time>
      </trkpt>
      <trkpt lat="50.42423" lon="3.56379">
        <ele>22.220179</ele>
        <time>2020-05-24T22:03:03.623Z</time>
      </trkpt>
      <trkpt lat="50.42405" lon="3.5634">
        <ele>22.391742</ele>
        <time>2020-05-24T22:03:10.980Z</time>
      </trkpt>
      <trkpt lat="50.42397" lon="3.56328">
        <ele>22.453571</ele>
        <time>2020-05-24T22:03:13.820Z</time>
      </trkpt>
      <trkpt lat="50.42392" lon="3.56319">
        <ele>22.498549</ele>
        <time>2020-05-24T22:03:15.825Z</time>
      </trkpt>
      <trkpt lat="50.42385" lon="3.56309">
        <ele>22.550983</ele>
        <time>2020-05-24T22:03:18.307Z</time>
      </trkpt>
      <trkpt lat="50.4237" lon="3.5629">
        <ele>22.662316</ele>
        <time>2020-05-24T22:03:23.655Z</time>
      </trkpt>
      <trkpt lat="50.42363" lon="3.56283">
        <ele>22.73571</ele>
        <time>2020-05-24T22:03:25.757Z</time>
      </trkpt>
      <trkpt lat="50.42392" lon="3.56228">
        <ele>23.35932</ele>
        <time>2020-05-24T22:03:39.118Z</time>
      </trkpt>
      <trkpt lat="50.4241" lon="3.5619">
        <ele>23.776668</ele>
        <time>2020-05-24T22:03:47.945Z</time>
      </trkpt>
      <trkpt lat="50.42416" lon="3.56178">
        <ele>23.900071</ele>
        <time>2020-05-24T22:03:50.561Z</time>
      </trkpt>
      <trkpt lat="50.42433" lon="3.56144">
        <ele>24.281924</ele>
        <time>2020-05-24T22:03:58.764Z</time>
      </trkpt>
      <trkpt lat="50.42458" lon="3.56092">
        <ele>24.849986</ele>
        <time>2020-05-24T22:04:10.974Z</time>
      </trkpt>
      <trkpt lat="50.42482" lon="3.56046">
        <ele>25.23782</ele>
        <time>2020-05-24T22:04:21.885Z</time>
      </trkpt>
      <trkpt lat="50.42488" lon="3.56027">
        <ele>25.312254</ele>
        <time>2020-05-24T22:04:25.610Z</time>
      </trkpt>
      <trkpt lat="50.42489" lon="3.5601">
        <ele>25.370055</ele>
        <time>2020-05-24T22:04:28.381Z</time>
      </trkpt>
      <trkpt lat="50.42502" lon="3.56003">
        <ele>25.446117</ele>
        <time>2020-05-24T22:04:31.937Z</time>
      </trkpt>
      <trkpt lat="50.42525" lon="3.55877">
        <ele>25.904716</ele>
        <time>2020-05-24T22:04:52.861Z</time>
      </trkpt>
      <trkpt lat="50.42529" lon="3.55856">
        <ele>25.979848</ele>
        <time>2020-05-24T22:04:56.107Z</time>
      </trkpt>
      <trkpt lat="50.42536" lon="3.5585">
        <ele>26.021343</ele>
        <time>2020-05-24T22:04:57.902Z</time>
      </trkpt>
      <trkpt lat="50.42567" lon="3.55806">
        <ele>26.121814</ele>
        <time>2020-05-24T22:05:07.865Z</time>
      </trkpt>
      <trkpt lat="50.42654" lon="3.55556">
        <ele>26.059809</ele>
        <time>2020-05-24T22:05:49.308Z</time>
      </trkpt>
      <trkpt lat="50.42799" lon="3.55252">
        <ele>26.165295</ele>
        <time>2020-05-24T22:06:46.137Z</time>
      </trkpt>
      <trkpt lat="50.4284" lon="3.55169">
        <ele>26.193532</ele>
        <time>2020-05-24T22:07:01.399Z</time>
      </trkpt>
      <trkpt lat="50.42846" lon="3.55179">
        <ele>26.197195</ele>
        <time>2020-05-24T22:07:03.466Z</time>
      </trkpt>
      <trkpt lat="50.42875" lon="3.55121">
        <ele>26.5154</ele>
        <time>2020-05-24T22:07:14.609Z</time>
      </trkpt>
      <trkpt lat="50.42886" lon="3.55093">
        <ele>26.746361</ele>
        <time>2020-05-24T22:07:19.823Z</time>
      </trkpt>
      <trkpt lat="50.42899" lon="3.55073">
        <ele>26.950183</ele>
        <time>2020-05-24T22:07:24.251Z</time>
      </trkpt>
      <trkpt lat="50.42956" lon="3.54992">
        <ele>27.80309</ele>
        <time>2020-05-24T22:07:44.601Z</time>
      </trkpt>
      <trkpt lat="50.43046" lon="3.54851">
        <ele>30.593567</ele>
        <time>2020-05-24T22:08:29.302Z</time>
      </trkpt>
      <trkpt lat="50.4306" lon="3.54812">
        <ele>31.326234</ele>
        <time>2020-05-24T22:08:38.241Z</time>
      </trkpt>
      <trkpt lat="50.4306" lon="3.54812">
        <ele>31.326234</ele>
        <time>2020-05-24T22:08:38.550Z</time>
      </trkpt>
      <trkpt lat="50.43117" lon="3.54696">
        <ele>33.225637</ele>
        <time>2020-05-24T22:09:09.149Z</time>
      </trkpt>
      <trkpt lat="50.43356" lon="3.54183">
        <ele>36.32753</ele>
        <time>2020-05-24T22:10:52.050Z</time>
      </trkpt>
      <trkpt lat="50.4343" lon="3.5402">
        <ele>37.496766</ele>
        <time>2020-05-24T22:11:26.657Z</time>
      </trkpt>
      <trkpt lat="50.43592" lon="3.53677">
        <ele>41.071496</ele>
        <time>2020-05-24T22:12:44.339Z</time>
      </trkpt>
      <trkpt lat="50.4363" lon="3.53595">
        <ele>41.950831</ele>
        <time>2020-05-24T22:13:03.451Z</time>
      </trkpt>
      <trkpt lat="50.43672" lon="3.53506">
        <ele>42.512422</ele>
        <time>2020-05-24T22:13:23.742Z</time>
      </trkpt>
      <trkpt lat="50.44029" lon="3.52745">
        <ele>47.372946</ele>
        <time>2020-05-24T22:16:00.404Z</time>
      </trkpt>
      <trkpt lat="50.44147" lon="3.52494">
        <ele>49.216735</ele>
        <time>2020-05-24T22:16:55.837Z</time>
      </trkpt>
      <trkpt lat="50.44141" lon="3.52456">
        <ele>49.453393</ele>
        <time>2020-05-24T22:17:02.381Z</time>
      </trkpt>
      <trkpt lat="50.44124" lon="3.52302">
        <ele>48.760466</ele>
        <time>2020-05-24T22:17:25.195Z</time>
      </trkpt>
      <trkpt lat="50.44105" lon="3.52127">
        <ele>47.557909</ele>
        <time>2020-05-24T22:17:46.627Z</time>
      </trkpt>
      <trkpt lat="50.44138" lon="3.5208">
        <ele>46.685513</ele>
        <time>2020-05-24T22:17:54.785Z</time>
      </trkpt>
      <trkpt lat="50.44138" lon="3.52053">
        <ele>46.353689</ele>
        <time>2020-05-24T22:17:57.842Z</time>
      </trkpt>
      <trkpt lat="50.44146" lon="3.52046">
        <ele>46.177494</ele>
        <time>2020-05-24T22:17:59.411Z</time>
      </trkpt>
      <trkpt lat="50.44192" lon="3.51993">
        <ele>45.077522</ele>
        <time>2020-05-24T22:18:09.794Z</time>
      </trkpt>
      <trkpt lat="50.44202" lon="3.51953">
        <ele>44.63825</ele>
        <time>2020-05-24T22:18:15.039Z</time>
      </trkpt>
      <trkpt lat="50.44201" lon="3.5195">
        <ele>44.622855</ele>
        <time>2020-05-24T22:18:15.301Z</time>
      </trkpt>
      <trkpt lat="50.442" lon="3.51942">
        <ele>44.5814</ele>
        <time>2020-05-24T22:18:16.321Z</time>
      </trkpt>
      <trkpt lat="50.43972" lon="3.51363">
        <ele>41.093324</ele>
        <time>2020-05-24T22:19:48.520Z</time>
      </trkpt>
      <trkpt lat="50.4393" lon="3.51255">
        <ele>40.149984</ele>
        <time>2020-05-24T22:20:03.954Z</time>
      </trkpt>
      <trkpt lat="50.4387" lon="3.511">
        <ele>38.204672</ele>
        <time>2020-05-24T22:20:25.225Z</time>
      </trkpt>
      <trkpt lat="50.43688" lon="3.50634">
        <ele>33.503749</ele>
        <time>2020-05-24T22:21:32.661Z</time>
      </trkpt>
      <trkpt lat="50.43687" lon="3.50623">
        <ele>33.445841</ele>
        <time>2020-05-24T22:21:33.953Z</time>
      </trkpt>
      <trkpt lat="50.43677" lon="3.5062">
        <ele>33.365439</ele>
        <time>2020-05-24T22:21:36.359Z</time>
      </trkpt>
      <trkpt lat="50.4367" lon="3.5062">
        <ele>33.306215</ele>
        <time>2020-05-24T22:21:37.998Z</time>
      </trkpt>
      <trkpt lat="50.43617" lon="3.50643">
        <ele>32.851881</ele>
        <time>2020-05-24T22:21:50.182Z</time>
      </trkpt>
      <trkpt lat="50.43426" lon="3.50725">
        <ele>33.52791</ele>
        <time>2020-05-24T22:22:39.984Z</time>
      </trkpt>
      <trkpt lat="50.43423" lon="3.50726">
        <ele>33.532683</ele>
        <time>2020-05-24T22:22:40.919Z</time>
      </trkpt>
      <trkpt lat="50.42978" lon="3.50919">
        <ele>34.06744</ele>
        <time>2020-05-24T22:24:29.790Z</time>
      </trkpt>
      <trkpt lat="50.42056" lon="3.50205">
        <ele>34.177885</ele>
        <time>2020-05-24T22:28:28.370Z</time>
      </trkpt>
      <trkpt lat="50.41842" lon="3.50039">
        <ele>34.014267</ele>
        <time>2020-05-24T22:29:23.140Z</time>
      </trkpt>
      <trkpt lat="50.41217" lon="3.48524">
        <ele>31.42101</ele>
        <time>2020-05-24T22:33:39.789Z</time>
      </trkpt>
      <trkpt lat="50.41208" lon="3.48505">
        <ele>31.498947</ele>
        <time>2020-05-24T22:33:43.351Z</time>
      </trkpt>
      <trkpt lat="50.41351" lon="3.48471">
        <ele>32.23022</ele>
        <time>2020-05-24T22:34:19.368Z</time>
      </trkpt>
      <trkpt lat="50.4158" lon="3.48421">
        <ele>33.784359</ele>
        <time>2020-05-24T22:35:18.228Z</time>
      </trkpt>
      <trkpt lat="50.41944" lon="3.4834">
        <ele>34.33672</ele>
        <time>2020-05-24T22:36:43.085Z</time>
      </trkpt>
      <trkpt lat="50.42001" lon="3.48327">
        <ele>34.011269</ele>
        <time>2020-05-24T22:36:54.529Z</time>
      </trkpt>
      <trkpt lat="50.42081" lon="3.48311">
        <ele>33.472759</ele>
        <time>2020-05-24T22:37:09.985Z</time>
      </trkpt>
      <trkpt lat="50.42504" lon="3.4822">
        <ele>28.513544</ele>
        <time>2020-05-24T22:38:30.643Z</time>
      </trkpt>
      <trkpt lat="50.42554" lon="3.48212">
        <ele>27.982563</ele>
        <time>2020-05-24T22:38:40.459Z</time>
      </trkpt>
      <trkpt lat="50.42609" lon="3.48202">
        <ele>27.424182</ele>
        <time>2020-05-24T22:38:51.219Z</time>
      </trkpt>
      <trkpt lat="50.42687" lon="3.48191">
        <ele>26.961473</ele>
        <time>2020-05-24T22:39:06.534Z</time>
      </trkpt>
      <trkpt lat="50.42709" lon="3.48188">
        <ele>26.827972</ele>
        <time>2020-05-24T22:39:11.273Z</time>
      </trkpt>
      <trkpt lat="50.42726" lon="3.48185">
        <ele>26.725928</ele>
        <time>2020-05-24T22:39:14.577Z</time>
      </trkpt>
      <trkpt lat="50.43063" lon="3.48137">
        <ele>26.045073</ele>
        <time>2020-05-24T22:40:27.251Z</time>
      </trkpt>
      <trkpt lat="50.43236" lon="3.48112">
        <ele>26.384258</ele>
        <time>2020-05-24T22:41:08.189Z</time>
      </trkpt>
      <trkpt lat="50.43248" lon="3.4811">
        <ele>26.422304</ele>
        <time>2020-05-24T22:41:12.730Z</time>
      </trkpt>
      <trkpt lat="50.43253" lon="3.4811">
        <ele>26.439585</ele>
        <time>2020-05-24T22:41:14.790Z</time>
      </trkpt>
      <trkpt lat="50.4326" lon="3.48104">
        <ele>26.465782</ele>
        <time>2020-05-24T22:41:17.858Z</time>
      </trkpt>
      <trkpt lat="50.43265" lon="3.48098">
        <ele>26.488222</ele>
        <time>2020-05-24T22:41:20.462Z</time>
      </trkpt>
      <trkpt lat="50.43274" lon="3.48103">
        <ele>26.518805</ele>
        <time>2020-05-24T22:41:22.799Z</time>
      </trkpt>
      <trkpt lat="50.43294" lon="3.48105">
        <ele>26.583506</ele>
        <time>2020-05-24T22:41:27.420Z</time>
      </trkpt>
      <trkpt lat="50.43468" lon="3.48081">
        <ele>26.98775</ele>
        <time>2020-05-24T22:42:08.151Z</time>
      </trkpt>
      <trkpt lat="50.43654" lon="3.48056">
        <ele>26.748494</ele>
        <time>2020-05-24T22:42:49.234Z</time>
      </trkpt>
      <trkpt lat="50.44124" lon="3.4799">
        <ele>23.26429</ele>
        <time>2020-05-24T22:44:21.965Z</time>
      </trkpt>
      <trkpt lat="50.44287" lon="3.47965">
        <ele>22.616072</ele>
        <time>2020-05-24T22:44:57.803Z</time>
      </trkpt>
      <trkpt lat="50.44293" lon="3.47958">
        <ele>22.593617</ele>
        <time>2020-05-24T22:44:59.529Z</time>
      </trkpt>
      <trkpt lat="50.44293" lon="3.47958">
        <ele>22.593617</ele>
        <time>2020-05-24T22:44:59.573Z</time>
      </trkpt>
      <trkpt lat="50.44296" lon="3.47945">
        <ele>22.565549</ele>
        <time>2020-05-24T22:45:01.361Z</time>
      </trkpt>
      <trkpt lat="50.44315" lon="3.47832">
        <ele>22.336363</ele>
        <time>2020-05-24T22:45:16.912Z</time>
      </trkpt>
      <trkpt lat="50.44319" lon="3.4764">
        <ele>21.246094</ele>
        <time>2020-05-24T22:45:40.910Z</time>
      </trkpt>
      <trkpt lat="50.44336" lon="3.47551">
        <ele>20.674866</ele>
        <time>2020-05-24T22:45:52.094Z</time>
      </trkpt>
      <trkpt lat="50.44348" lon="3.47498">
        <ele>20.290492</ele>
        <time>2020-05-24T22:45:58.941Z</time>
      </trkpt>
      <trkpt lat="50.44353" lon="3.47468">
        <ele>20.077583</ele>
        <time>2020-05-24T22:46:02.545Z</time>
      </trkpt>
      <trkpt lat="50.4435" lon="3.47433">
        <ele>19.82644</ele>
        <time>2020-05-24T22:46:06.918Z</time>
      </trkpt>
      <trkpt lat="50.44319" lon="3.47294">
        <ele>18.78333</ele>
        <time>2020-05-24T22:46:24.893Z</time>
      </trkpt>
      <trkpt lat="50.44309" lon="3.4725">
        <ele>18.501663</ele>
        <time>2020-05-24T22:46:30.579Z</time>
      </trkpt>
      <trkpt lat="50.44298" lon="3.47198">
        <ele>18.300302</ele>
        <time>2020-05-24T22:46:37.399Z</time>
      </trkpt>
      <trkpt lat="50.44287" lon="3.47149">
        <ele>18.108168</ele>
        <time>2020-05-24T22:46:43.978Z</time>
      </trkpt>
      <trkpt lat="50.44266" lon="3.47044">
        <ele>17.697255</ele>
        <time>2020-05-24T22:46:58.454Z</time>
      </trkpt>
      <trkpt lat="50.44205" lon="3.46765">
        <ele>17.372634</ele>
        <time>2020-05-24T22:47:39.477Z</time>
      </trkpt>
      <trkpt lat="50.44202" lon="3.46739">
        <ele>17.357883</ele>
        <time>2020-05-24T22:47:43.435Z</time>
      </trkpt>
      <trkpt lat="50.44203" lon="3.46718">
        <ele>17.352599</ele>
        <time>2020-05-24T22:47:46.463Z</time>
      </trkpt>
      <trkpt lat="50.44216" lon="3.46676">
        <ele>17.360789</ele>
        <time>2020-05-24T22:47:53.339Z</time>
      </trkpt>
      <trkpt lat="50.44243" lon="3.46639">
        <ele>17.370442</ele>
        <time>2020-05-24T22:48:01.256Z</time>
      </trkpt>
      <trkpt lat="50.44309" lon="3.46548">
        <ele>17.394418</ele>
        <time>2020-05-24T22:48:21.231Z</time>
      </trkpt>
      <trkpt lat="50.44338" lon="3.46498">
        <ele>17.421373</ele>
        <time>2020-05-24T22:48:30.614Z</time>
      </trkpt>
      <trkpt lat="50.44346" lon="3.46481">
        <ele>17.434855</ele>
        <time>2020-05-24T22:48:33.602Z</time>
      </trkpt>
      <trkpt lat="50.44355" lon="3.46461">
        <ele>17.449504</ele>
        <time>2020-05-24T22:48:37.019Z</time>
      </trkpt>
      <trkpt lat="50.44375" lon="3.46417">
        <ele>17.482904</ele>
        <time>2020-05-24T22:48:44.643Z</time>
      </trkpt>
      <trkpt lat="50.44396" lon="3.46386">
        <ele>17.511452</ele>
        <time>2020-05-24T22:48:51.213Z</time>
      </trkpt>
      <trkpt lat="50.44462" lon="3.46292">
        <ele>17.663775</ele>
        <time>2020-05-24T22:49:11.740Z</time>
      </trkpt>
      <trkpt lat="50.445" lon="3.46247">
        <ele>17.84431</ele>
        <time>2020-05-24T22:49:23.190Z</time>
      </trkpt>
      <trkpt lat="50.44502" lon="3.46244">
        <ele>17.854251</ele>
        <time>2020-05-24T22:49:23.892Z</time>
      </trkpt>
      <trkpt lat="50.44525" lon="3.46213">
        <ele>17.968283</ele>
        <time>2020-05-24T22:49:31.142Z</time>
      </trkpt>
      <trkpt lat="50.44565" lon="3.46156">
        <ele>18.172317</ele>
        <time>2020-05-24T22:49:44.181Z</time>
      </trkpt>
      <trkpt lat="50.44588" lon="3.46122">
        <ele>18.261627</ele>
        <time>2020-05-24T22:49:51.609Z</time>
      </trkpt>
      <trkpt lat="50.44612" lon="3.46086">
        <ele>18.290098</ele>
        <time>2020-05-24T22:49:59.337Z</time>
      </trkpt>
      <trkpt lat="50.4462" lon="3.46072">
        <ele>18.300807</ele>
        <time>2020-05-24T22:50:02.278Z</time>
      </trkpt>
      <trkpt lat="50.44633" lon="3.46054">
        <ele>18.315066</ele>
        <time>2020-05-24T22:50:06.031Z</time>
      </trkpt>
      <trkpt lat="50.44655" lon="3.4602">
        <ele>18.341807</ele>
        <time>2020-05-24T22:50:13.136Z</time>
      </trkpt>
      <trkpt lat="50.44663" lon="3.46005">
        <ele>18.352453</ele>
        <time>2020-05-24T22:50:15.894Z</time>
      </trkpt>
      <trkpt lat="50.44669" lon="3.46018">
        <ele>18.361564</ele>
        <time>2020-05-24T22:50:18.416Z</time>
      </trkpt>
      <trkpt lat="50.44701" lon="3.46076">
        <ele>18.403353</ele>
        <time>2020-05-24T22:50:29.482Z</time>
      </trkpt>
      <trkpt lat="50.44772" lon="3.46208">
        <ele>18.158389</ele>
        <time>2020-05-24T22:50:53.784Z</time>
      </trkpt>
      <trkpt lat="50.44788" lon="3.4623">
        <ele>18.10647</ele>
        <time>2020-05-24T22:50:58.597Z</time>
      </trkpt>
      <trkpt lat="50.44815" lon="3.46246">
        <ele>18.037044</ele>
        <time>2020-05-24T22:51:05.090Z</time>
      </trkpt>
      <trkpt lat="50.44845" lon="3.46291">
        <ele>17.966001</ele>
        <time>2020-05-24T22:51:14.358Z</time>
      </trkpt>
      <trkpt lat="50.44935" lon="3.46476">
        <ele>17.857742</ele>
        <time>2020-05-24T22:51:48.679Z</time>
      </trkpt>
      <trkpt lat="50.44985" lon="3.46563">
        <ele>17.583273</ele>
        <time>2020-05-24T22:52:05.521Z</time>
      </trkpt>
      <trkpt lat="50.45006" lon="3.46604">
        <ele>17.431031</ele>
        <time>2020-05-24T22:52:12.857Z</time>
      </trkpt>
      <trkpt lat="50.45015" lon="3.46592">
        <ele>17.378314</ele>
        <time>2020-05-24T22:52:15.230Z</time>
      </trkpt>
      <trkpt lat="50.45071" lon="3.46477">
        <ele>16.946204</ele>
        <time>2020-05-24T22:52:34.756Z</time>
      </trkpt>
      <trkpt lat="50.45079" lon="3.46463">
        <ele>16.874895</ele>
        <time>2020-05-24T22:52:37.148Z</time>
      </trkpt>
      <trkpt lat="50.45088" lon="3.46456">
        <ele>16.813175</ele>
        <time>2020-05-24T22:52:39.307Z</time>
      </trkpt>
      <trkpt lat="50.45121" lon="3.4644">
        <ele>16.614567</ele>
        <time>2020-05-24T22:52:46.266Z</time>
      </trkpt>
      <trkpt lat="50.45193" lon="3.46405">
        <ele>16.168036</ele>
        <time>2020-05-24T22:53:02.176Z</time>
      </trkpt>
      <trkpt lat="50.45282" lon="3.46345">
        <ele>15.986144</ele>
        <time>2020-05-24T22:53:23.944Z</time>
      </trkpt>
      <trkpt lat="50.45385" lon="3.46251">
        <ele>15.990482</ele>
        <time>2020-05-24T22:53:52.393Z</time>
      </trkpt>
      <trkpt lat="50.45392" lon="3.46237">
        <ele>15.998217</ele>
        <time>2020-05-24T22:53:55.076Z</time>
      </trkpt>
      <trkpt lat="50.45404" lon="3.46173">
        <ele>16.028047</ele>
        <time>2020-05-24T22:54:05.310Z</time>
      </trkpt>
      <trkpt lat="50.45463" lon="3.4607">
        <ele>16.089795</ele>
        <time>2020-05-24T22:54:25.868Z</time>
      </trkpt>
      <trkpt lat="50.45521" lon="3.46062">
        <ele>16.118482</ele>
        <time>2020-05-24T22:54:39.385Z</time>
      </trkpt>
      <trkpt lat="50.45532" lon="3.46059">
        <ele>16.120931</ele>
        <time>2020-05-24T22:54:41.902Z</time>
      </trkpt>
      <trkpt lat="50.45548" lon="3.46152">
        <ele>16.13473</ele>
        <time>2020-05-24T22:54:55.858Z</time>
      </trkpt>
      <trkpt lat="50.45552" lon="3.46171">
        <ele>16.137532</ele>
        <time>2020-05-24T22:54:58.612Z</time>
      </trkpt>
      <trkpt lat="50.45559" lon="3.46206">
        <ele>16.142764</ele>
        <time>2020-05-24T22:55:03.908Z</time>
      </trkpt>
      <trkpt lat="50.45565" lon="3.46225">
        <ele>16.145774</ele>
        <time>2020-05-24T22:55:06.864Z</time>
      </trkpt>
      <trkpt lat="50.4557" lon="3.46242">
        <ele>16.148373</ele>
        <time>2020-05-24T22:55:09.496Z</time>
      </trkpt>
      <trkpt lat="50.45577" lon="3.46259">
        <ele>16.151419</ele>
        <time>2020-05-24T22:55:12.530Z</time>
      </trkpt>
      <trkpt lat="50.45589" lon="3.46281">
        <ele>16.163019</ele>
        <time>2020-05-24T22:55:16.562Z</time>
      </trkpt>
      <trkpt lat="50.45686" lon="3.46522">
        <ele>16.343225</ele>
        <time>2020-05-24T22:55:57.621Z</time>
      </trkpt>
      <trkpt lat="50.45702" lon="3.46581">
        <ele>16.444401</ele>
        <time>2020-05-24T22:56:06.890Z</time>
      </trkpt>
      <trkpt lat="50.45703" lon="3.46776">
        <ele>16.753722</ele>
        <time>2020-05-24T22:56:36.315Z</time>
      </trkpt>
      <trkpt lat="50.45718" lon="3.46906">
        <ele>16.942764</ele>
        <time>2020-05-24T22:56:55.442Z</time>
      </trkpt>
      <trkpt lat="50.45719" lon="3.4695">
        <ele>17.005495</ele>
        <time>2020-05-24T22:57:01.888Z</time>
      </trkpt>
      <trkpt lat="50.45717" lon="3.4702">
        <ele>17.104854</ele>
        <time>2020-05-24T22:57:12.276Z</time>
      </trkpt>
      <trkpt lat="50.45713" lon="3.47115">
        <ele>17.454479</ele>
        <time>2020-05-24T22:57:26.750Z</time>
      </trkpt>
      <trkpt lat="50.45708" lon="3.47233">
        <ele>18.07489</ele>
        <time>2020-05-24T22:57:45.129Z</time>
      </trkpt>
      <trkpt lat="50.45706" lon="3.47309">
        <ele>18.474007</ele>
        <time>2020-05-24T22:57:57.996Z</time>
      </trkpt>
      <trkpt lat="50.4572" lon="3.47409">
        <ele>19.314971</ele>
        <time>2020-05-24T22:58:17.085Z</time>
      </trkpt>
      <trkpt lat="50.45724" lon="3.47442">
        <ele>19.632239</ele>
        <time>2020-05-24T22:58:23.406Z</time>
      </trkpt>
      <trkpt lat="50.45749" lon="3.4764">
        <ele>21.430092</ele>
        <time>2020-05-24T22:59:00.027Z</time>
      </trkpt>
      <trkpt lat="50.45836" lon="3.48319">
        <ele>24.357192</ele>
        <time>2020-05-24T23:00:49.571Z</time>
      </trkpt>
      <trkpt lat="50.45903" lon="3.48854">
        <ele>24.979456</ele>
        <time>2020-05-24T23:02:11.512Z</time>
      </trkpt>
      <trkpt lat="50.45925" lon="3.49016">
        <ele>24.439837</ele>
        <time>2020-05-24T23:02:32.000Z</time>
      </trkpt>
      <trkpt lat="50.46005" lon="3.48903">
        <ele>22.89486</ele>
        <time>2020-05-24T23:02:52.520Z</time>
      </trkpt>
      <trkpt lat="50.46192" lon="3.48632">
        <ele>19.40201</ele>
        <time>2020-05-24T23:03:41.777Z</time>
      </trkpt>
      <trkpt lat="50.46267" lon="3.48523">
        <ele>18.701704</ele>
        <time>2020-05-24T23:04:03.030Z</time>
      </trkpt>
      <trkpt lat="50.46352" lon="3.484">
        <ele>18.168727</ele>
        <time>2020-05-24T23:04:28.677Z</time>
      </trkpt>
      <trkpt lat="50.46455" lon="3.48251">
        <ele>17.940221</ele>
        <time>2020-05-24T23:05:00.650Z</time>
      </trkpt>
      <trkpt lat="50.46507" lon="3.48174">
        <ele>17.730197</ele>
        <time>2020-05-24T23:05:16.407Z</time>
      </trkpt>
      <trkpt lat="50.46551" lon="3.48072">
        <ele>17.497459</ele>
        <time>2020-05-24T23:05:33.764Z</time>
      </trkpt>
      <trkpt lat="50.46597" lon="3.48022">
        <ele>17.33459</ele>
        <time>2020-05-24T23:05:46.194Z</time>
      </trkpt>
      <trkpt lat="50.46627" lon="3.47989">
        <ele>17.232436</ele>
        <time>2020-05-24T23:05:54.078Z</time>
      </trkpt>
      <trkpt lat="50.46703" lon="3.47893">
        <ele>16.953582</ele>
        <time>2020-05-24T23:06:15.799Z</time>
      </trkpt>
      <trkpt lat="50.46729" lon="3.47857">
        <ele>16.884485</ele>
        <time>2020-05-24T23:06:23.274Z</time>
      </trkpt>
      <trkpt lat="50.46784" lon="3.47766">
        <ele>16.755284</ele>
        <time>2020-05-24T23:06:40.562Z</time>
      </trkpt>
      <trkpt lat="50.46852" lon="3.47621">
        <ele>16.580583</ele>
        <time>2020-05-24T23:07:05.500Z</time>
      </trkpt>
      <trkpt lat="50.46892" lon="3.47496">
        <ele>16.460638</ele>
        <time>2020-05-24T23:07:24.794Z</time>
      </trkpt>
      <trkpt lat="50.469" lon="3.47464">
        <ele>16.430743</ele>
        <time>2020-05-24T23:07:29.588Z</time>
      </trkpt>
      <trkpt lat="50.46897" lon="3.47433">
        <ele>16.404231</ele>
        <time>2020-05-24T23:07:33.785Z</time>
      </trkpt>
      <trkpt lat="50.46868" lon="3.47366">
        <ele>16.374833</ele>
        <time>2020-05-24T23:07:45.150Z</time>
      </trkpt>
      <trkpt lat="50.46868" lon="3.47341">
        <ele>16.36906</ele>
        <time>2020-05-24T23:07:48.639Z</time>
      </trkpt>
      <trkpt lat="50.46869" lon="3.47337">
        <ele>16.368022</ele>
        <time>2020-05-24T23:07:49.173Z</time>
      </trkpt>
      <trkpt lat="50.46874" lon="3.47324">
        <ele>16.364288</ele>
        <time>2020-05-24T23:07:51.454Z</time>
      </trkpt>
      <trkpt lat="50.46912" lon="3.47288">
        <ele>16.348045</ele>
        <time>2020-05-24T23:08:01.281Z</time>
      </trkpt>
      <trkpt lat="50.46932" lon="3.47258">
        <ele>16.337661</ele>
        <time>2020-05-24T23:08:07.475Z</time>
      </trkpt>
      <trkpt lat="50.46955" lon="3.4722">
        <ele>16.325066</ele>
        <time>2020-05-24T23:08:15.047Z</time>
      </trkpt>
      <trkpt lat="50.46967" lon="3.47199">
        <ele>16.316349</ele>
        <time>2020-05-24T23:08:19.236Z</time>
      </trkpt>
      <trkpt lat="50.47005" lon="3.47114">
        <ele>16.281755</ele>
        <time>2020-05-24T23:08:33.780Z</time>
      </trkpt>
      <trkpt lat="50.47043" lon="3.47002">
        <ele>16.239533</ele>
        <time>2020-05-24T23:08:51.564Z</time>
      </trkpt>
      <trkpt lat="50.47063" lon="3.46934">
        <ele>16.156683</ele>
        <time>2020-05-24T23:09:01.866Z</time>
      </trkpt>
      <trkpt lat="50.47076" lon="3.46911">
        <ele>16.106699</ele>
        <time>2020-05-24T23:09:05.991Z</time>
      </trkpt>
      <trkpt lat="50.47022" lon="3.46798">
        <ele>15.870535</ele>
        <time>2020-05-24T23:09:24.815Z</time>
      </trkpt>
      <trkpt lat="50.46992" lon="3.4673">
        <ele>15.754507</ele>
        <time>2020-05-24T23:09:35.959Z</time>
      </trkpt>
      <trkpt lat="50.4699" lon="3.46702">
        <ele>15.748461</ele>
        <time>2020-05-24T23:09:40.088Z</time>
      </trkpt>
      <trkpt lat="50.46993" lon="3.46686">
        <ele>15.745006</ele>
        <time>2020-05-24T23:09:42.237Z</time>
      </trkpt>
      <trkpt lat="50.46999" lon="3.46654">
        <ele>15.737858</ele>
        <time>2020-05-24T23:09:47.151Z</time>
      </trkpt>
      <trkpt lat="50.47001" lon="3.46644">
        <ele>15.735644</ele>
        <time>2020-05-24T23:09:48.610Z</time>
      </trkpt>
      <trkpt lat="50.47002" lon="3.46641">
        <ele>15.734907</ele>
        <time>2020-05-24T23:09:49.063Z</time>
      </trkpt>
      <trkpt lat="50.47006" lon="3.4663">
        <ele>15.732248</ele>
        <time>2020-05-24T23:09:50.744Z</time>
      </trkpt>
      <trkpt lat="50.47026" lon="3.46579">
        <ele>15.719503</ele>
        <time>2020-05-24T23:09:59.286Z</time>
      </trkpt>
      <trkpt lat="50.4703" lon="3.46565">
        <ele>15.716227</ele>
        <time>2020-05-24T23:10:01.790Z</time>
      </trkpt>
      <trkpt lat="50.47039" lon="3.46496">
        <ele>15.701371</ele>
        <time>2020-05-24T23:10:11.507Z</time>
      </trkpt>
      <trkpt lat="50.47035" lon="3.46455">
        <ele>15.736554</ele>
        <time>2020-05-24T23:10:17.444Z</time>
      </trkpt>
      <trkpt lat="50.47023" lon="3.46407">
        <ele>15.821767</ele>
        <time>2020-05-24T23:10:24.717Z</time>
      </trkpt>
      <trkpt lat="50.47019" lon="3.46397">
        <ele>15.842922</ele>
        <time>2020-05-24T23:10:26.895Z</time>
      </trkpt>
      <trkpt lat="50.47015" lon="3.46388">
        <ele>15.860842</ele>
        <time>2020-05-24T23:10:28.195Z</time>
      </trkpt>
      <trkpt lat="50.46967" lon="3.46315">
        <ele>16.036435</ele>
        <time>2020-05-24T23:10:44.291Z</time>
      </trkpt>
      <trkpt lat="50.46965" lon="3.46304">
        <ele>16.055967</ele>
        <time>2020-05-24T23:10:45.722Z</time>
      </trkpt>
      <trkpt lat="50.46964" lon="3.46297">
        <ele>16.067854</ele>
        <time>2020-05-24T23:10:46.990Z</time>
      </trkpt>
      <trkpt lat="50.46976" lon="3.4622">
        <ele>16.249042</ele>
        <time>2020-05-24T23:10:58.953Z</time>
      </trkpt>
      <trkpt lat="50.46974" lon="3.46142">
        <ele>16.579953</ele>
        <time>2020-05-24T23:11:11.017Z</time>
      </trkpt>
      <trkpt lat="50.46985" lon="3.46041">
        <ele>17.020472</ele>
        <time>2020-05-24T23:11:27.474Z</time>
      </trkpt>
      <trkpt lat="50.46983" lon="3.45999">
        <ele>17.200836</ele>
        <time>2020-05-24T23:11:34.338Z</time>
      </trkpt>
      <trkpt lat="50.46982" lon="3.45984">
        <ele>17.262612</ele>
        <time>2020-05-24T23:11:36.766Z</time>
      </trkpt>
      <trkpt lat="50.46982" lon="3.45983">
        <ele>17.266461</ele>
        <time>2020-05-24T23:11:37.105Z</time>
      </trkpt>
      <trkpt lat="50.46949" lon="3.45908">
        <ele>17.700487</ele>
        <time>2020-05-24T23:11:51.948Z</time>
      </trkpt>
      <trkpt lat="50.46912" lon="3.45839">
        <ele>18.148165</ele>
        <time>2020-05-24T23:12:07.071Z</time>
      </trkpt>
      <trkpt lat="50.46864" lon="3.45759">
        <ele>18.691438</ele>
        <time>2020-05-24T23:12:25.157Z</time>
      </trkpt>
      <trkpt lat="50.46786" lon="3.45654">
        <ele>18.36429</ele>
        <time>2020-05-24T23:12:48.401Z</time>
      </trkpt>
      <trkpt lat="50.46771" lon="3.45621">
        <ele>18.248307</ele>
        <time>2020-05-24T23:12:53.361Z</time>
      </trkpt>
      <trkpt lat="50.46766" lon="3.45612">
        <ele>18.212948</ele>
        <time>2020-05-24T23:12:55.146Z</time>
      </trkpt>
      <trkpt lat="50.46759" lon="3.45596">
        <ele>18.157002</ele>
        <time>2020-05-24T23:12:57.423Z</time>
      </trkpt>
      <trkpt lat="50.46756" lon="3.45588">
        <ele>18.129531</ele>
        <time>2020-05-24T23:12:58.534Z</time>
      </trkpt>
      <trkpt lat="50.46752" lon="3.45577">
        <ele>18.092094</ele>
        <time>2020-05-24T23:13:00.129Z</time>
      </trkpt>
      <trkpt lat="50.46746" lon="3.45554">
        <ele>18.023812</ele>
        <time>2020-05-24T23:13:03.049Z</time>
      </trkpt>
      <trkpt lat="50.46742" lon="3.45535">
        <ele>17.966246</ele>
        <time>2020-05-24T23:13:05.296Z</time>
      </trkpt>
      <trkpt lat="50.46731" lon="3.45472">
        <ele>17.289663</ele>
        <time>2020-05-24T23:13:13.120Z</time>
      </trkpt>
      <trkpt lat="50.46726" lon="3.45457">
        <ele>17.117704</ele>
        <time>2020-05-24T23:13:15.254Z</time>
      </trkpt>
      <trkpt lat="50.46722" lon="3.45447">
        <ele>17.004389</ele>
        <time>2020-05-24T23:13:16.454Z</time>
      </trkpt>
      <trkpt lat="50.46717" lon="3.45443">
        <ele>16.916</ele>
        <time>2020-05-24T23:13:17.372Z</time>
      </trkpt>
      <trkpt lat="50.46689" lon="3.45418">
        <ele>16.393308</ele>
        <time>2020-05-24T23:13:23.177Z</time>
      </trkpt>
      <trkpt lat="50.4668" lon="3.45405">
        <ele>16.194475</ele>
        <time>2020-05-24T23:13:25.280Z</time>
      </trkpt>
      <trkpt lat="50.46673" lon="3.45396">
        <ele>16.05584</ele>
        <time>2020-05-24T23:13:26.827Z</time>
      </trkpt>
      <trkpt lat="50.46666" lon="3.45387">
        <ele>15.907783</ele>
        <time>2020-05-24T23:13:28.491Z</time>
      </trkpt>
      <trkpt lat="50.46665" lon="3.45387">
        <ele>15.895757</ele>
        <time>2020-05-24T23:13:28.593Z</time>
      </trkpt>
      <trkpt lat="50.46617" lon="3.45316">
        <ele>15.047015</ele>
        <time>2020-05-24T23:13:40.589Z</time>
      </trkpt>
      <trkpt lat="50.46611" lon="3.45296">
        <ele>15.02331</ele>
        <time>2020-05-24T23:13:43.208Z</time>
      </trkpt>
      <trkpt lat="50.46608" lon="3.45278">
        <ele>15.00358</ele>
        <time>2020-05-24T23:13:45.676Z</time>
      </trkpt>
      <trkpt lat="50.46607" lon="3.45264">
        <ele>14.988885</ele>
        <time>2020-05-24T23:13:47.570Z</time>
      </trkpt>
      <trkpt lat="50.46608" lon="3.4526">
        <ele>14.984177</ele>
        <time>2020-05-24T23:13:48.177Z</time>
      </trkpt>
      <trkpt lat="50.46608" lon="3.45256">
        <ele>14.97939</ele>
        <time>2020-05-24T23:13:48.775Z</time>
      </trkpt>
      <trkpt lat="50.46614" lon="3.45243">
        <ele>14.962938</ele>
        <time>2020-05-24T23:13:50.713Z</time>
      </trkpt>
      <trkpt lat="50.46624" lon="3.45222">
        <ele>14.934397</ele>
        <time>2020-05-24T23:13:54.443Z</time>
      </trkpt>
      <trkpt lat="50.46637" lon="3.45205">
        <ele>14.906808</ele>
        <time>2020-05-24T23:13:57.937Z</time>
      </trkpt>
      <trkpt lat="50.46649" lon="3.45188">
        <ele>14.880754</ele>
        <time>2020-05-24T23:14:01.592Z</time>
      </trkpt>
      <trkpt lat="50.46746" lon="3.45059">
        <ele>15.233768</ele>
        <time>2020-05-24T23:14:33.617Z</time>
      </trkpt>
      <trkpt lat="50.46759" lon="3.45033">
        <ele>15.390241</ele>
        <time>2020-05-24T23:14:39.136Z</time>
      </trkpt>
      <trkpt lat="50.46768" lon="3.45001">
        <ele>15.557301</ele>
        <time>2020-05-24T23:14:45.129Z</time>
      </trkpt>
      <trkpt lat="50.46777" lon="3.44958">
        <ele>15.772033</ele>
        <time>2020-05-24T23:14:52.515Z</time>
      </trkpt>
      <trkpt lat="50.46781" lon="3.44932">
        <ele>15.895945</ele>
        <time>2020-05-24T23:14:56.720Z</time>
      </trkpt>
      <trkpt lat="50.46809" lon="3.4475">
        <ele>16.458495</ele>
        <time>2020-05-24T23:15:25.503Z</time>
      </trkpt>
      <trkpt lat="50.46828" lon="3.44616">
        <ele>16.793487</ele>
        <time>2020-05-24T23:15:45.782Z</time>
      </trkpt>
      <trkpt lat="50.46829" lon="3.44533">
        <ele>17.065808</ele>
        <time>2020-05-24T23:15:58.444Z</time>
      </trkpt>
      <trkpt lat="50.46832" lon="3.44489">
        <ele>17.21412</ele>
        <time>2020-05-24T23:16:05.451Z</time>
      </trkpt>
      <trkpt lat="50.46842" lon="3.44451">
        <ele>17.351973</ele>
        <time>2020-05-24T23:16:11.984Z</time>
      </trkpt>
      <trkpt lat="50.46842" lon="3.44451">
        <ele>17.351973</ele>
        <time>2020-05-24T23:16:12.029Z</time>
      </trkpt>
      <trkpt lat="50.46863" lon="3.4439">
        <ele>17.579339</ele>
        <time>2020-05-24T23:16:22.748Z</time>
      </trkpt>
      <trkpt lat="50.46871" lon="3.44361">
        <ele>17.685722</ele>
        <time>2020-05-24T23:16:27.825Z</time>
      </trkpt>
      <trkpt lat="50.4689" lon="3.443">
        <ele>17.826706</ele>
        <time>2020-05-24T23:16:38.296Z</time>
      </trkpt>
      <trkpt lat="50.46893" lon="3.4429">
        <ele>17.846512</ele>
        <time>2020-05-24T23:16:40.135Z</time>
      </trkpt>
      <trkpt lat="50.46895" lon="3.44286">
        <ele>17.855214</ele>
        <time>2020-05-24T23:16:40.945Z</time>
      </trkpt>
      <trkpt lat="50.46904" lon="3.44268">
        <ele>17.892644</ele>
        <time>2020-05-24T23:16:44.436Z</time>
      </trkpt>
      <trkpt lat="50.4697" lon="3.44166">
        <ele>18.139602</ele>
        <time>2020-05-24T23:17:06.256Z</time>
      </trkpt>
      <trkpt lat="50.47003" lon="3.44054">
        <ele>18.043488</ele>
        <time>2020-05-24T23:17:23.175Z</time>
      </trkpt>
      <trkpt lat="50.47021" lon="3.44011">
        <ele>17.92423</ele>
        <time>2020-05-24T23:17:30.085Z</time>
      </trkpt>
      <trkpt lat="50.47043" lon="3.43975">
        <ele>17.808832</ele>
        <time>2020-05-24T23:17:36.650Z</time>
      </trkpt>
      <trkpt lat="50.47089" lon="3.43934">
        <ele>17.618943</ele>
        <time>2020-05-24T23:17:47.417Z</time>
      </trkpt>
      <trkpt lat="50.47133" lon="3.43912">
        <ele>17.451731</ele>
        <time>2020-05-24T23:17:56.815Z</time>
      </trkpt>
      <trkpt lat="50.4716" lon="3.43897">
        <ele>17.345304</ele>
        <time>2020-05-24T23:18:02.751Z</time>
      </trkpt>
      <trkpt lat="50.47181" lon="3.43875">
        <ele>17.250551</ele>
        <time>2020-05-24T23:18:08.082Z</time>
      </trkpt>
      <trkpt lat="50.47213" lon="3.43826">
        <ele>17.085033</ele>
        <time>2020-05-24T23:18:17.499Z</time>
      </trkpt>
      <trkpt lat="50.47227" lon="3.43795">
        <ele>16.997196</ele>
        <time>2020-05-24T23:18:22.622Z</time>
      </trkpt>
      <trkpt lat="50.47243" lon="3.43737">
        <ele>16.904273</ele>
        <time>2020-05-24T23:18:31.162Z</time>
      </trkpt>
      <trkpt lat="50.47256" lon="3.43705">
        <ele>16.902986</ele>
        <time>2020-05-24T23:18:36.400Z</time>
      </trkpt>
      <trkpt lat="50.47305" lon="3.43634">
        <ele>16.899511</ele>
        <time>2020-05-24T23:18:50.887Z</time>
      </trkpt>
      <trkpt lat="50.47315" lon="3.43617">
        <ele>16.898733</ele>
        <time>2020-05-24T23:18:54.182Z</time>
      </trkpt>
      <trkpt lat="50.47333" lon="3.43582">
        <ele>16.897223</ele>
        <time>2020-05-24T23:19:00.891Z</time>
      </trkpt>
      <trkpt lat="50.47343" lon="3.43555">
        <ele>16.896165</ele>
        <time>2020-05-24T23:19:05.607Z</time>
      </trkpt>
      <trkpt lat="50.47355" lon="3.43514">
        <ele>16.995098</ele>
        <time>2020-05-24T23:19:12.453Z</time>
      </trkpt>
      <trkpt lat="50.47363" lon="3.4346">
        <ele>17.182355</ele>
        <time>2020-05-24T23:19:20.865Z</time>
      </trkpt>
      <trkpt lat="50.47364" lon="3.43447">
        <ele>17.227845</ele>
        <time>2020-05-24T23:19:22.957Z</time>
      </trkpt>
      <trkpt lat="50.4737" lon="3.43392">
        <ele>17.416532</ele>
        <time>2020-05-24T23:19:31.540Z</time>
      </trkpt>
      <trkpt lat="50.47371" lon="3.43382">
        <ele>17.45168</ele>
        <time>2020-05-24T23:19:33.308Z</time>
      </trkpt>
      <trkpt lat="50.47378" lon="3.43333">
        <ele>17.625022</ele>
        <time>2020-05-24T23:19:41.203Z</time>
      </trkpt>
      <trkpt lat="50.47388" lon="3.43289">
        <ele>17.782938</ele>
        <time>2020-05-24T23:19:48.440Z</time>
      </trkpt>
      <trkpt lat="50.47394" lon="3.43256">
        <ele>17.895871</ele>
        <time>2020-05-24T23:19:54.104Z</time>
      </trkpt>
      <trkpt lat="50.47396" lon="3.43242">
        <ele>17.938608</ele>
        <time>2020-05-24T23:19:56.241Z</time>
      </trkpt>
      <trkpt lat="50.47398" lon="3.43194">
        <ele>18.09038</ele>
        <time>2020-05-24T23:20:04.218Z</time>
      </trkpt>
      <trkpt lat="50.47403" lon="3.43012">
        <ele>18.65561</ele>
        <time>2020-05-24T23:20:32.030Z</time>
      </trkpt>
      <trkpt lat="50.47406" lon="3.42913">
        <ele>18.765612</ele>
        <time>2020-05-24T23:20:46.771Z</time>
      </trkpt>
      <trkpt lat="50.47407" lon="3.4291">
        <ele>18.767117</ele>
        <time>2020-05-24T23:20:47.239Z</time>
      </trkpt>
      <trkpt lat="50.4741" lon="3.42874">
        <ele>18.782555</ele>
        <time>2020-05-24T23:20:52.715Z</time>
      </trkpt>
      <trkpt lat="50.47415" lon="3.42835">
        <ele>18.799521</ele>
        <time>2020-05-24T23:20:58.466Z</time>
      </trkpt>
      <trkpt lat="50.47422" lon="3.42797">
        <ele>18.816318</ele>
        <time>2020-05-24T23:21:04.126Z</time>
      </trkpt>
      <trkpt lat="50.47448" lon="3.42668">
        <ele>18.72748</ele>
        <time>2020-05-24T23:21:22.459Z</time>
      </trkpt>
      <trkpt lat="50.47452" lon="3.42652">
        <ele>18.676813</ele>
        <time>2020-05-24T23:21:25.012Z</time>
      </trkpt>
      <trkpt lat="50.47463" lon="3.42656">
        <ele>18.621902</ele>
        <time>2020-05-24T23:21:27.468Z</time>
      </trkpt>
      <trkpt lat="50.47478" lon="3.42659">
        <ele>18.557098</ele>
        <time>2020-05-24T23:21:30.471Z</time>
      </trkpt>
      <trkpt lat="50.47487" lon="3.42661">
        <ele>18.514189</ele>
        <time>2020-05-24T23:21:32.596Z</time>
      </trkpt>
      <trkpt lat="50.47501" lon="3.42662">
        <ele>18.453277</ele>
        <time>2020-05-24T23:21:35.294Z</time>
      </trkpt>
      <trkpt lat="50.47522" lon="3.4266">
        <ele>18.356724</ele>
        <time>2020-05-24T23:21:39.784Z</time>
      </trkpt>
      <trkpt lat="50.4753" lon="3.42658">
        <ele>18.322374</ele>
        <time>2020-05-24T23:21:41.273Z</time>
      </trkpt>
      <trkpt lat="50.47557" lon="3.42652">
        <ele>18.199564</ele>
        <time>2020-05-24T23:21:46.833Z</time>
      </trkpt>
      <trkpt lat="50.47712" lon="3.42598">
        <ele>17.505914</ele>
        <time>2020-05-24T23:22:18.815Z</time>
      </trkpt>
      <trkpt lat="50.4785" lon="3.42612">
        <ele>17.436575</ele>
        <time>2020-05-24T23:22:49.812Z</time>
      </trkpt>
      <trkpt lat="50.47922" lon="3.42603">
        <ele>17.583077</ele>
        <time>2020-05-24T23:23:06.647Z</time>
      </trkpt>
      <trkpt lat="50.47945" lon="3.42594">
        <ele>17.63236</ele>
        <time>2020-05-24T23:23:12.413Z</time>
      </trkpt>
      <trkpt lat="50.48025" lon="3.42556">
        <ele>17.992767</ele>
        <time>2020-05-24T23:23:32.445Z</time>
      </trkpt>
      <trkpt lat="50.48123" lon="3.42506">
        <ele>18.421039</ele>
        <time>2020-05-24T23:23:57.673Z</time>
      </trkpt>
      <trkpt lat="50.48147" lon="3.42501">
        <ele>18.440235</ele>
        <time>2020-05-24T23:24:03.069Z</time>
      </trkpt>
      <trkpt lat="50.48167" lon="3.42499">
        <ele>18.456968</ele>
        <time>2020-05-24T23:24:07.860Z</time>
      </trkpt>
      <trkpt lat="50.4823" lon="3.42507">
        <ele>18.508161</ele>
        <time>2020-05-24T23:24:21.868Z</time>
      </trkpt>
      <trkpt lat="50.48243" lon="3.4251">
        <ele>18.518465</ele>
        <time>2020-05-24T23:24:24.854Z</time>
      </trkpt>
      <trkpt lat="50.48265" lon="3.42517">
        <ele>18.536596</ele>
        <time>2020-05-24T23:24:29.645Z</time>
      </trkpt>
      <trkpt lat="50.48298" lon="3.42533">
        <ele>18.559844</ele>
        <time>2020-05-24T23:24:37.391Z</time>
      </trkpt>
      <trkpt lat="50.48331" lon="3.42556">
        <ele>18.539235</ele>
        <time>2020-05-24T23:24:45.293Z</time>
      </trkpt>
      <trkpt lat="50.48364" lon="3.42603">
        <ele>18.514177</ele>
        <time>2020-05-24T23:24:55.012Z</time>
      </trkpt>
      <trkpt lat="50.48379" lon="3.42655">
        <ele>18.493666</ele>
        <time>2020-05-24T23:25:02.845Z</time>
      </trkpt>
      <trkpt lat="50.48391" lon="3.42733">
        <ele>18.464809</ele>
        <time>2020-05-24T23:25:14.263Z</time>
      </trkpt>
      <trkpt lat="50.48397" lon="3.4277">
        <ele>18.47232</ele>
        <time>2020-05-24T23:25:19.980Z</time>
      </trkpt>
      <trkpt lat="50.48404" lon="3.42822">
        <ele>18.497442</ele>
        <time>2020-05-24T23:25:27.553Z</time>
      </trkpt>
      <trkpt lat="50.48423" lon="3.42957">
        <ele>18.563636</ele>
        <time>2020-05-24T23:25:47.362Z</time>
      </trkpt>
      <trkpt lat="50.48426" lon="3.42971">
        <ele>18.570691</ele>
        <time>2020-05-24T23:25:49.538Z</time>
      </trkpt>
      <trkpt lat="50.48432" lon="3.43001">
        <ele>18.58562</ele>
        <time>2020-05-24T23:25:53.950Z</time>
      </trkpt>
      <trkpt lat="50.48438" lon="3.43022">
        <ele>18.59928</ele>
        <time>2020-05-24T23:25:57.212Z</time>
      </trkpt>
      <trkpt lat="50.48468" lon="3.43113">
        <ele>18.715912</ele>
        <time>2020-05-24T23:26:11.738Z</time>
      </trkpt>
      <trkpt lat="50.48503" lon="3.4319">
        <ele>18.824421</ele>
        <time>2020-05-24T23:26:25.636Z</time>
      </trkpt>
      <trkpt lat="50.48515" lon="3.43211">
        <ele>18.856574</ele>
        <time>2020-05-24T23:26:29.588Z</time>
      </trkpt>
      <trkpt lat="50.48516" lon="3.43213">
        <ele>18.860747</ele>
        <time>2020-05-24T23:26:30.328Z</time>
      </trkpt>
      <trkpt lat="50.48566" lon="3.43274">
        <ele>19.080324</ele>
        <time>2020-05-24T23:26:45.608Z</time>
      </trkpt>
      <trkpt lat="50.48614" lon="3.43307">
        <ele>19.354408</ele>
        <time>2020-05-24T23:26:58.471Z</time>
      </trkpt>
      <trkpt lat="50.48697" lon="3.4335">
        <ele>19.810333</ele>
        <time>2020-05-24T23:27:19.789Z</time>
      </trkpt>
      <trkpt lat="50.48714" lon="3.43358">
        <ele>19.899329</ele>
        <time>2020-05-24T23:27:24.119Z</time>
      </trkpt>
      <trkpt lat="50.48812" lon="3.43386">
        <ele>20.360544</ele>
        <time>2020-05-24T23:27:48.082Z</time>
      </trkpt>
      <trkpt lat="50.48835" lon="3.43392">
        <ele>20.471327</ele>
        <time>2020-05-24T23:27:53.662Z</time>
      </trkpt>
      <trkpt lat="50.48831" lon="3.43417">
        <ele>20.550006</ele>
        <time>2020-05-24T23:27:57.632Z</time>
      </trkpt>
      <trkpt lat="50.48777" lon="3.43508">
        <ele>20.938856</ele>
        <time>2020-05-24T23:28:16.648Z</time>
      </trkpt>
      <trkpt lat="50.48772" lon="3.4353">
        <ele>21.013433</ele>
        <time>2020-05-24T23:28:20.248Z</time>
      </trkpt>
      <trkpt lat="50.48774" lon="3.4355">
        <ele>21.080641</ele>
        <time>2020-05-24T23:28:23.633Z</time>
      </trkpt>
      <trkpt lat="50.48786" lon="3.43584">
        <ele>21.20766</ele>
        <time>2020-05-24T23:28:29.699Z</time>
      </trkpt>
      <trkpt lat="50.48793" lon="3.43602">
        <ele>21.27685</ele>
        <time>2020-05-24T23:28:33.133Z</time>
      </trkpt>
      <trkpt lat="50.488" lon="3.4362">
        <ele>21.345495</ele>
        <time>2020-05-24T23:28:36.317Z</time>
      </trkpt>
      <trkpt lat="50.48827" lon="3.43682">
        <ele>21.591108</ele>
        <time>2020-05-24T23:28:47.911Z</time>
      </trkpt>
      <trkpt lat="50.48851" lon="3.4374">
        <ele>21.632506</ele>
        <time>2020-05-24T23:28:58.546Z</time>
      </trkpt>
      <trkpt lat="50.48863" lon="3.43769">
        <ele>21.640221</ele>
        <time>2020-05-24T23:29:03.620Z</time>
      </trkpt>
      <trkpt lat="50.48882" lon="3.43799">
        <ele>21.649648</ele>
        <time>2020-05-24T23:29:09.939Z</time>
      </trkpt>
      <trkpt lat="50.48907" lon="3.43837">
        <ele>21.661892</ele>
        <time>2020-05-24T23:29:17.871Z</time>
      </trkpt>
      <trkpt lat="50.48918" lon="3.43854">
        <ele>21.667556</ele>
        <time>2020-05-24T23:29:21.393Z</time>
      </trkpt>
      <trkpt lat="50.48944" lon="3.43891">
        <ele>21.679621</ele>
        <time>2020-05-24T23:29:28.539Z</time>
      </trkpt>
      <trkpt lat="50.48953" lon="3.43902">
        <ele>21.640219</ele>
        <time>2020-05-24T23:29:30.981Z</time>
      </trkpt>
      <trkpt lat="50.48981" lon="3.43937">
        <ele>21.305081</ele>
        <time>2020-05-24T23:29:38.062Z</time>
      </trkpt>
      <trkpt lat="50.48998" lon="3.43966">
        <ele>21.073946</ele>
        <time>2020-05-24T23:29:42.898Z</time>
      </trkpt>
      <trkpt lat="50.4902" lon="3.44022">
        <ele>20.683822</ele>
        <time>2020-05-24T23:29:50.967Z</time>
      </trkpt>
      <trkpt lat="50.49043" lon="3.44079">
        <ele>20.285704</ele>
        <time>2020-05-24T23:29:59.152Z</time>
      </trkpt>
      <trkpt lat="50.49079" lon="3.44135">
        <ele>19.857697</ele>
        <time>2020-05-24T23:30:08.844Z</time>
      </trkpt>
      <trkpt lat="50.49109" lon="3.44183">
        <ele>19.556366</ele>
        <time>2020-05-24T23:30:17.032Z</time>
      </trkpt>
      <trkpt lat="50.49138" lon="3.44236">
        <ele>19.237365</ele>
        <time>2020-05-24T23:30:25.911Z</time>
      </trkpt>
      <trkpt lat="50.49167" lon="3.44324">
        <ele>18.790882</ele>
        <time>2020-05-24T23:30:38.965Z</time>
      </trkpt>
      <trkpt lat="50.49219" lon="3.44434">
        <ele>18.596839</ele>
        <time>2020-05-24T23:30:57.837Z</time>
      </trkpt>
      <trkpt lat="50.49227" lon="3.44464">
        <ele>18.561424</ele>
        <time>2020-05-24T23:31:02.498Z</time>
      </trkpt>
      <trkpt lat="50.49237" lon="3.44565">
        <ele>18.45319</ele>
        <time>2020-05-24T23:31:16.735Z</time>
      </trkpt>
      <trkpt lat="50.49254" lon="3.44618">
        <ele>18.368525</ele>
        <time>2020-05-24T23:31:24.980Z</time>
      </trkpt>
      <trkpt lat="50.49286" lon="3.44688">
        <ele>18.225099</ele>
        <time>2020-05-24T23:31:36.596Z</time>
      </trkpt>
      <trkpt lat="50.49301" lon="3.44709">
        <ele>18.171973</ele>
        <time>2020-05-24T23:31:40.868Z</time>
      </trkpt>
      <trkpt lat="50.49336" lon="3.44729">
        <ele>18.07311</ele>
        <time>2020-05-24T23:31:48.653Z</time>
      </trkpt>
      <trkpt lat="50.4934" lon="3.44731">
        <ele>18.062639</ele>
        <time>2020-05-24T23:31:49.431Z</time>
      </trkpt>
      <trkpt lat="50.49353" lon="3.4475">
        <ele>18.016312</ele>
        <time>2020-05-24T23:31:53.088Z</time>
      </trkpt>
      <trkpt lat="50.49359" lon="3.44758">
        <ele>17.994318</ele>
        <time>2020-05-24T23:31:54.887Z</time>
      </trkpt>
      <trkpt lat="50.49366" lon="3.44748">
        <ele>17.971224</ele>
        <time>2020-05-24T23:31:56.737Z</time>
      </trkpt>
      <trkpt lat="50.49368" lon="3.44744">
        <ele>17.962558</ele>
        <time>2020-05-24T23:31:57.448Z</time>
      </trkpt>
      <trkpt lat="50.4942" lon="3.44663">
        <ele>18.033038</ele>
        <time>2020-05-24T23:32:13.956Z</time>
      </trkpt>
      <trkpt lat="50.49426" lon="3.44654">
        <ele>18.042256</ele>
        <time>2020-05-24T23:32:15.673Z</time>
      </trkpt>
      <trkpt lat="50.49477" lon="3.44573">
        <ele>18.122712</ele>
        <time>2020-05-24T23:32:32.791Z</time>
      </trkpt>
      <trkpt lat="50.49491" lon="3.44561">
        <ele>18.140391</ele>
        <time>2020-05-24T23:32:36.882Z</time>
      </trkpt>
      <trkpt lat="50.49544" lon="3.44521">
        <ele>18.021279</ele>
        <time>2020-05-24T23:32:50.319Z</time>
      </trkpt>
      <trkpt lat="50.49562" lon="3.44503">
        <ele>17.959535</ele>
        <time>2020-05-24T23:32:55.226Z</time>
      </trkpt>
      <trkpt lat="50.4959" lon="3.44475">
        <ele>17.865314</ele>
        <time>2020-05-24T23:33:02.113Z</time>
      </trkpt>
      <trkpt lat="50.49648" lon="3.44404">
        <ele>17.65267</ele>
        <time>2020-05-24T23:33:17.134Z</time>
      </trkpt>
      <trkpt lat="50.49663" lon="3.44393">
        <ele>17.531444</ele>
        <time>2020-05-24T23:33:20.373Z</time>
      </trkpt>
      <trkpt lat="50.49669" lon="3.44396">
        <ele>17.473333</ele>
        <time>2020-05-24T23:33:21.468Z</time>
      </trkpt>
      <trkpt lat="50.49672" lon="3.44401">
        <ele>17.42956</ele>
        <time>2020-05-24T23:33:22.386Z</time>
      </trkpt>
      <trkpt lat="50.49674" lon="3.44405">
        <ele>17.398501</ele>
        <time>2020-05-24T23:33:22.924Z</time>
      </trkpt>
      <trkpt lat="50.49687" lon="3.44433">
        <ele>17.184688</ele>
        <time>2020-05-24T23:33:27.364Z</time>
      </trkpt>
      <trkpt lat="50.49687" lon="3.44435">
        <ele>17.172693</ele>
        <time>2020-05-24T23:33:27.546Z</time>
      </trkpt>
      <trkpt lat="50.49735" lon="3.44569">
        <ele>16.223834</ele>
        <time>2020-05-24T23:33:46.121Z</time>
      </trkpt>
      <trkpt lat="50.49754" lon="3.44626">
        <ele>15.883517</ele>
        <time>2020-05-24T23:33:54.114Z</time>
      </trkpt>
      <trkpt lat="50.49776" lon="3.4469">
        <ele>15.823585</ele>
        <time>2020-05-24T23:34:03.702Z</time>
      </trkpt>
      <trkpt lat="50.49798" lon="3.44759">
        <ele>15.759669</ele>
        <time>2020-05-24T23:34:14.284Z</time>
      </trkpt>
      <trkpt lat="50.49799" lon="3.44762">
        <ele>15.75702</ele>
        <time>2020-05-24T23:34:14.829Z</time>
      </trkpt>
      <trkpt lat="50.49844" lon="3.44889">
        <ele>15.792365</ele>
        <time>2020-05-24T23:34:36.145Z</time>
      </trkpt>
      <trkpt lat="50.49851" lon="3.44909">
        <ele>15.912646</ele>
        <time>2020-05-24T23:34:40.009Z</time>
      </trkpt>
      <trkpt lat="50.49853" lon="3.44914">
        <ele>15.941878</ele>
        <time>2020-05-24T23:34:40.906Z</time>
      </trkpt>
      <trkpt lat="50.49864" lon="3.44939">
        <ele>16.096197</ele>
        <time>2020-05-24T23:34:45.879Z</time>
      </trkpt>
      <trkpt lat="50.49867" lon="3.44946">
        <ele>16.138649</ele>
        <time>2020-05-24T23:34:47.299Z</time>
      </trkpt>
      <trkpt lat="50.49874" lon="3.44964">
        <ele>16.246697</ele>
        <time>2020-05-24T23:34:50.980Z</time>
      </trkpt>
      <trkpt lat="50.49935" lon="3.45106">
        <ele>17.100556</ele>
        <time>2020-05-24T23:35:19.791Z</time>
      </trkpt>
      <trkpt lat="50.49943" lon="3.45125">
        <ele>17.132508</ele>
        <time>2020-05-24T23:35:23.448Z</time>
      </trkpt>
      <trkpt lat="50.49958" lon="3.45159">
        <ele>17.18827</ele>
        <time>2020-05-24T23:35:29.505Z</time>
      </trkpt>
      <trkpt lat="50.49974" lon="3.45177">
        <ele>17.231116</ele>
        <time>2020-05-24T23:35:34.141Z</time>
      </trkpt>
      <trkpt lat="50.49999" lon="3.45188">
        <ele>17.284729</ele>
        <time>2020-05-24T23:35:39.633Z</time>
      </trkpt>
      <trkpt lat="50.50005" lon="3.45189">
        <ele>17.298344</ele>
        <time>2020-05-24T23:35:41.140Z</time>
      </trkpt>
      <trkpt lat="50.50044" lon="3.45199">
        <ele>17.383069</ele>
        <time>2020-05-24T23:35:50.234Z</time>
      </trkpt>
      <trkpt lat="50.50051" lon="3.45202">
        <ele>17.398093</ele>
        <time>2020-05-24T23:35:51.809Z</time>
      </trkpt>
      <trkpt lat="50.50052" lon="3.45203">
        <ele>17.401647</ele>
        <time>2020-05-24T23:35:52.190Z</time>
      </trkpt>
      <trkpt lat="50.50084" lon="3.45223">
        <ele>17.475633</ele>
        <time>2020-05-24T23:36:00.028Z</time>
      </trkpt>
      <trkpt lat="50.50092" lon="3.45227">
        <ele>17.479157</ele>
        <time>2020-05-24T23:36:01.872Z</time>
      </trkpt>
      <trkpt lat="50.50129" lon="3.45252">
        <ele>17.472204</ele>
        <time>2020-05-24T23:36:10.340Z</time>
      </trkpt>
      <trkpt lat="50.50141" lon="3.4526">
        <ele>17.469968</ele>
        <time>2020-05-24T23:36:13.169Z</time>
      </trkpt>
      <trkpt lat="50.50195" lon="3.45295">
        <ele>17.459962</ele>
        <time>2020-05-24T23:36:25.195Z</time>
      </trkpt>
      <trkpt lat="50.50229" lon="3.45322">
        <ele>17.453431</ele>
        <time>2020-05-24T23:36:33.503Z</time>
      </trkpt>
      <trkpt lat="50.5031" lon="3.45386">
        <ele>17.813749</ele>
        <time>2020-05-24T23:36:56.715Z</time>
      </trkpt>
      <trkpt lat="50.50341" lon="3.45413">
        <ele>18.008747</ele>
        <time>2020-05-24T23:37:05.401Z</time>
      </trkpt>
      <trkpt lat="50.50355" lon="3.45425">
        <ele>18.096792</ele>
        <time>2020-05-24T23:37:09.196Z</time>
      </trkpt>
      <trkpt lat="50.50407" lon="3.45459">
        <ele>18.405025</ele>
        <time>2020-05-24T23:37:22.683Z</time>
      </trkpt>
      <trkpt lat="50.50416" lon="3.45464">
        <ele>18.458252</ele>
        <time>2020-05-24T23:37:25.089Z</time>
      </trkpt>
      <trkpt lat="50.50444" lon="3.45482">
        <ele>18.609398</ele>
        <time>2020-05-24T23:37:32.446Z</time>
      </trkpt>
      <trkpt lat="50.50444" lon="3.45482">
        <ele>18.609398</ele>
        <time>2020-05-24T23:37:32.450Z</time>
      </trkpt>
      <trkpt lat="50.50444" lon="3.45482">
        <ele>18.609398</ele>
        <time>2020-05-24T23:37:32.486Z</time>
      </trkpt>
      <trkpt lat="50.50447" lon="3.4549">
        <ele>18.639985</ele>
        <time>2020-05-24T23:37:33.935Z</time>
      </trkpt>
      <trkpt lat="50.50448" lon="3.45508">
        <ele>18.699912</ele>
        <time>2020-05-24T23:37:36.780Z</time>
      </trkpt>
      <trkpt lat="50.50443" lon="3.45552">
        <ele>18.842183</ele>
        <time>2020-05-24T23:37:43.934Z</time>
      </trkpt>
      <trkpt lat="50.50441" lon="3.45568">
        <ele>18.894946</ele>
        <time>2020-05-24T23:37:46.389Z</time>
      </trkpt>
      <trkpt lat="50.50441" lon="3.45573">
        <ele>18.911531</ele>
        <time>2020-05-24T23:37:47.163Z</time>
      </trkpt>
      <trkpt lat="50.5044" lon="3.45588">
        <ele>18.961175</ele>
        <time>2020-05-24T23:37:49.738Z</time>
      </trkpt>
      <trkpt lat="50.50437" lon="3.45631">
        <ele>19.102081</ele>
        <time>2020-05-24T23:37:56.131Z</time>
      </trkpt>
      <trkpt lat="50.50436" lon="3.45642">
        <ele>19.137716</ele>
        <time>2020-05-24T23:37:58.040Z</time>
      </trkpt>
      <trkpt lat="50.50433" lon="3.4572">
        <ele>19.38154</ele>
        <time>2020-05-24T23:38:09.720Z</time>
      </trkpt>
      <trkpt lat="50.50424" lon="3.45772">
        <ele>19.52497</ele>
        <time>2020-05-24T23:38:17.960Z</time>
      </trkpt>
      <trkpt lat="50.5041" lon="3.45851">
        <ele>19.74149</ele>
        <time>2020-05-24T23:38:30.408Z</time>
      </trkpt>
      <trkpt lat="50.50361" lon="3.46074">
        <ele>20.098205</ele>
        <time>2020-05-24T23:39:06.842Z</time>
      </trkpt>
      <trkpt lat="50.50345" lon="3.46155">
        <ele>20.098205</ele>
        <time>2020-05-24T23:39:19.679Z</time>
      </trkpt>
      <trkpt lat="50.50335" lon="3.46236">
        <ele>20.098205</ele>
        <time>2020-05-24T23:39:31.793Z</time>
      </trkpt>
      <trkpt lat="50.50325" lon="3.46304">
        <ele>20.098205</ele>
        <time>2020-05-24T23:39:41.819Z</time>
      </trkpt>
      <trkpt lat="50.50317" lon="3.46374">
        <ele>20.098205</ele>
        <time>2020-05-24T23:39:51.788Z</time>
      </trkpt>
      <trkpt lat="50.50316" lon="3.46384">
        <ele>20.098205</ele>
        <time>2020-05-24T23:39:53.089Z</time>
      </trkpt>
    </trkseg>
  </trk>
</gpx>